<?xml version="1.0" encoding="UTF-8" standalone="no" ?>
<gpx xmlns="http://www.topografix.com/GPX/1/1" xmlns:xsi="http://www.w3.org/2001/XMLSchema-instance" xsi:schemaLocation="http://www.topografix.com/GPX/1/1 http://www.topografix.com/GPX/1/1/gpx.xsd" version="1.1" creator="VisuGPX - https://www.visugpx.com">
  <metadata>
    <name>2016-06-12 Couloir du Four - Crête des Charmilles</name>
    <desc><![CDATA[Vallon sauvage par toujours tracé, giboyant !]]></desc>
  </metadata>
  <trk>
    <name><![CDATA[2016-06-12 Couloir du Four- crête des Charmilles]]></name>
    <trkseg>
      <trkpt lat="45.35797" lon="5.74435">
        <ele>854</ele>
        <time>2016-06-12T10:30:49Z</time>
      </trkpt>
      <trkpt lat="45.35805" lon="5.74448">
        <ele>867.880804567</ele>
        <time>2016-06-12T10:30:54Z</time>
      </trkpt>
      <trkpt lat="45.35803" lon="5.74447">
        <ele>867.880804567</ele>
        <time>2016-06-12T10:30:59Z</time>
      </trkpt>
      <trkpt lat="45.35802" lon="5.74453">
        <ele>867.880804567</ele>
        <time>2016-06-12T10:31:04Z</time>
      </trkpt>
      <trkpt lat="45.35794" lon="5.74465">
        <ele>873.799014841</ele>
        <time>2016-06-12T10:31:14Z</time>
      </trkpt>
      <trkpt lat="45.35791" lon="5.74468">
        <ele>873.799014841</ele>
        <time>2016-06-12T10:31:19Z</time>
      </trkpt>
      <trkpt lat="45.35784" lon="5.74485">
        <ele>878.669802791</ele>
        <time>2016-06-12T10:31:29Z</time>
      </trkpt>
      <trkpt lat="45.35779" lon="5.74497">
        <ele>882.934055781</ele>
        <time>2016-06-12T10:31:34Z</time>
      </trkpt>
      <trkpt lat="45.35768" lon="5.74512">
        <ele>887.204871423</ele>
        <time>2016-06-12T10:31:44Z</time>
      </trkpt>
      <trkpt lat="45.35763" lon="5.74512">
        <ele>887.204871423</ele>
        <time>2016-06-12T10:31:49Z</time>
      </trkpt>
      <trkpt lat="45.35742" lon="5.7455">
        <ele>890.889453705</ele>
        <time>2016-06-12T10:32:11Z</time>
      </trkpt>
      <trkpt lat="45.35724" lon="5.74566">
        <ele>893.050828229</ele>
        <time>2016-06-12T10:32:26Z</time>
      </trkpt>
      <trkpt lat="45.35702" lon="5.746">
        <ele>894.991614562</ele>
        <time>2016-06-12T10:32:47Z</time>
      </trkpt>
      <trkpt lat="45.35688" lon="5.74623">
        <ele>896.903651279</ele>
        <time>2016-06-12T10:33:00Z</time>
      </trkpt>
      <trkpt lat="45.35686" lon="5.74625">
        <ele>896.903651279</ele>
        <time>2016-06-12T10:33:02Z</time>
      </trkpt>
      <trkpt lat="45.35684" lon="5.74629">
        <ele>896.903651279</ele>
        <time>2016-06-12T10:33:02Z</time>
      </trkpt>
      <trkpt lat="45.35682" lon="5.74633">
        <ele>898.028321</ele>
        <time>2016-06-12T10:33:04Z</time>
      </trkpt>
      <trkpt lat="45.35667" lon="5.74659">
        <ele>898.241154144</ele>
        <time>2016-06-12T10:33:22Z</time>
      </trkpt>
      <trkpt lat="45.35666" lon="5.74656">
        <ele>898.241154144</ele>
        <time>2016-06-12T10:33:22Z</time>
      </trkpt>
      <trkpt lat="45.35664" lon="5.7466">
        <ele>898.241154144</ele>
        <time>2016-06-12T10:33:24Z</time>
      </trkpt>
      <trkpt lat="45.35631" lon="5.74736">
        <ele>899.467686521</ele>
        <time>2016-06-12T10:34:04Z</time>
      </trkpt>
      <trkpt lat="45.3563" lon="5.74738">
        <ele>899.467686521</ele>
        <time>2016-06-12T10:34:04Z</time>
      </trkpt>
      <trkpt lat="45.35626" lon="5.74766">
        <ele>901.661276238</ele>
        <time>2016-06-12T10:34:19Z</time>
      </trkpt>
      <trkpt lat="45.35626" lon="5.74767">
        <ele>901.661276238</ele>
        <time>2016-06-12T10:34:19Z</time>
      </trkpt>
      <trkpt lat="45.35626" lon="5.74769">
        <ele>901.661276238</ele>
        <time>2016-06-12T10:34:20Z</time>
      </trkpt>
      <trkpt lat="45.35626" lon="5.74827">
        <ele>904.774268707</ele>
        <time>2016-06-12T10:34:52Z</time>
      </trkpt>
      <trkpt lat="45.35627" lon="5.74829">
        <ele>904.774268707</ele>
        <time>2016-06-12T10:34:53Z</time>
      </trkpt>
      <trkpt lat="45.35625" lon="5.74854">
        <ele>907.585300472</ele>
        <time>2016-06-12T10:35:06Z</time>
      </trkpt>
      <trkpt lat="45.35389" lon="5.75004">
        <ele>916.576261868</ele>
        <time>2016-06-12T10:38:30Z</time>
      </trkpt>
      <trkpt lat="45.35384" lon="5.74996">
        <ele>916.576261868</ele>
        <time>2016-06-12T10:38:34Z</time>
      </trkpt>
      <trkpt lat="45.35372" lon="5.74967">
        <ele>920.794703288</ele>
        <time>2016-06-12T10:38:45Z</time>
      </trkpt>
      <trkpt lat="45.35371" lon="5.74958">
        <ele>920.794703288</ele>
        <time>2016-06-12T10:38:50Z</time>
      </trkpt>
      <trkpt lat="45.35358" lon="5.74943">
        <ele>924.630674998</ele>
        <time>2016-06-12T10:39:00Z</time>
      </trkpt>
      <trkpt lat="45.3535" lon="5.74936">
        <ele>927.976838387</ele>
        <time>2016-06-12T10:39:05Z</time>
      </trkpt>
      <trkpt lat="45.35346" lon="5.7493">
        <ele>927.976838387</ele>
        <time>2016-06-12T10:39:15Z</time>
      </trkpt>
      <trkpt lat="45.35341" lon="5.74928">
        <ele>931.369516022</ele>
        <time>2016-06-12T10:39:20Z</time>
      </trkpt>
      <trkpt lat="45.35325" lon="5.74915">
        <ele>934.501692943</ele>
        <time>2016-06-12T10:39:30Z</time>
      </trkpt>
      <trkpt lat="45.3532" lon="5.7491">
        <ele>934.501692943</ele>
        <time>2016-06-12T10:39:35Z</time>
      </trkpt>
      <trkpt lat="45.35308" lon="5.74894">
        <ele>937.257147707</ele>
        <time>2016-06-12T10:39:45Z</time>
      </trkpt>
      <trkpt lat="45.35305" lon="5.74888">
        <ele>937.257147707</ele>
        <time>2016-06-12T10:39:50Z</time>
      </trkpt>
      <trkpt lat="45.35299" lon="5.74882">
        <ele>939.983327621</ele>
        <time>2016-06-12T10:40:00Z</time>
      </trkpt>
      <trkpt lat="45.35291" lon="5.74876">
        <ele>939.983327621</ele>
        <time>2016-06-12T10:40:05Z</time>
      </trkpt>
      <trkpt lat="45.35288" lon="5.74872">
        <ele>942.095612028</ele>
        <time>2016-06-12T10:40:09Z</time>
      </trkpt>
      <trkpt lat="45.35289" lon="5.7487">
        <ele>942.095612028</ele>
        <time>2016-06-12T10:40:14Z</time>
      </trkpt>
      <trkpt lat="45.35287" lon="5.7487">
        <ele>942.095612028</ele>
        <time>2016-06-12T10:40:19Z</time>
      </trkpt>
      <trkpt lat="45.35287" lon="5.74869">
        <ele>942.095612028</ele>
        <time>2016-06-12T10:40:24Z</time>
      </trkpt>
      <trkpt lat="45.35287" lon="5.74869">
        <ele>942.095612028</ele>
        <time>2016-06-12T10:40:29Z</time>
      </trkpt>
      <trkpt lat="45.35289" lon="5.74864">
        <ele>942.095612028</ele>
        <time>2016-06-12T10:40:35Z</time>
      </trkpt>
      <trkpt lat="45.35273" lon="5.74847">
        <ele>944.828499485</ele>
        <time>2016-06-12T10:40:46Z</time>
      </trkpt>
      <trkpt lat="45.35266" lon="5.74843">
        <ele>944.828499485</ele>
        <time>2016-06-12T10:40:50Z</time>
      </trkpt>
      <trkpt lat="45.35245" lon="5.7481">
        <ele>947.252639464</ele>
        <time>2016-06-12T10:41:06Z</time>
      </trkpt>
      <trkpt lat="45.35206" lon="5.74796">
        <ele>948.685867846</ele>
        <time>2016-06-12T10:41:19Z</time>
      </trkpt>
      <trkpt lat="45.35197" lon="5.74788">
        <ele>951.19837424</ele>
        <time>2016-06-12T10:41:25Z</time>
      </trkpt>
      <trkpt lat="45.3518" lon="5.7477">
        <ele>953.286779064</ele>
        <time>2016-06-12T10:41:35Z</time>
      </trkpt>
      <trkpt lat="45.35152" lon="5.74729">
        <ele>954.845883008</ele>
        <time>2016-06-12T10:41:54Z</time>
      </trkpt>
      <trkpt lat="45.35151" lon="5.74728">
        <ele>954.845883008</ele>
        <time>2016-06-12T10:41:55Z</time>
      </trkpt>
      <trkpt lat="45.35151" lon="5.74727">
        <ele>954.845883008</ele>
        <time>2016-06-12T10:41:56Z</time>
      </trkpt>
      <trkpt lat="45.35136" lon="5.74707">
        <ele>957.167263606</ele>
        <time>2016-06-12T10:42:09Z</time>
      </trkpt>
      <trkpt lat="45.35133" lon="5.74701">
        <ele>957.167263606</ele>
        <time>2016-06-12T10:42:09Z</time>
      </trkpt>
      <trkpt lat="45.35105" lon="5.74673">
        <ele>959.357245362</ele>
        <time>2016-06-12T10:42:28Z</time>
      </trkpt>
      <trkpt lat="45.35104" lon="5.74672">
        <ele>959.357245362</ele>
        <time>2016-06-12T10:42:29Z</time>
      </trkpt>
      <trkpt lat="45.35086" lon="5.74652">
        <ele>961.007567662</ele>
        <time>2016-06-12T10:42:38Z</time>
      </trkpt>
      <trkpt lat="45.3508" lon="5.74645">
        <ele>961.007567662</ele>
        <time>2016-06-12T10:42:43Z</time>
      </trkpt>
      <trkpt lat="45.35077" lon="5.74638">
        <ele>962.711225985</ele>
        <time>2016-06-12T10:42:46Z</time>
      </trkpt>
      <trkpt lat="45.3506" lon="5.74614">
        <ele>963.767817049</ele>
        <time>2016-06-12T10:43:00Z</time>
      </trkpt>
      <trkpt lat="45.35034" lon="5.74593">
        <ele>965.621779701</ele>
        <time>2016-06-12T10:43:19Z</time>
      </trkpt>
      <trkpt lat="45.35032" lon="5.74593">
        <ele>965.621779701</ele>
        <time>2016-06-12T10:43:19Z</time>
      </trkpt>
      <trkpt lat="45.34974" lon="5.7455">
        <ele>967.805510006</ele>
        <time>2016-06-12T10:43:51Z</time>
      </trkpt>
      <trkpt lat="45.34973" lon="5.74547">
        <ele>967.805510006</ele>
        <time>2016-06-12T10:43:51Z</time>
      </trkpt>
      <trkpt lat="45.34973" lon="5.74545">
        <ele>967.805510006</ele>
        <time>2016-06-12T10:43:52Z</time>
      </trkpt>
      <trkpt lat="45.34971" lon="5.74543">
        <ele>967.805510006</ele>
        <time>2016-06-12T10:43:53Z</time>
      </trkpt>
      <trkpt lat="45.3497" lon="5.74542">
        <ele>967.805510006</ele>
        <time>2016-06-12T10:43:54Z</time>
      </trkpt>
      <trkpt lat="45.34948" lon="5.74515">
        <ele>970.01916102</ele>
        <time>2016-06-12T10:44:14Z</time>
      </trkpt>
      <trkpt lat="45.3493" lon="5.74481">
        <ele>972.121600906</ele>
        <time>2016-06-12T10:44:26Z</time>
      </trkpt>
      <trkpt lat="45.34925" lon="5.74473">
        <ele>972.121600906</ele>
        <time>2016-06-12T10:44:30Z</time>
      </trkpt>
      <trkpt lat="45.34873" lon="5.74444">
        <ele>973.835733094</ele>
        <time>2016-06-12T10:44:54Z</time>
      </trkpt>
      <trkpt lat="45.34869" lon="5.74448">
        <ele>973.835733094</ele>
        <time>2016-06-12T10:44:56Z</time>
      </trkpt>
      <trkpt lat="45.3487" lon="5.7445">
        <ele>973.835733094</ele>
        <time>2016-06-12T10:44:57Z</time>
      </trkpt>
      <trkpt lat="45.3488" lon="5.74478">
        <ele>975.912947771</ele>
        <time>2016-06-12T10:45:08Z</time>
      </trkpt>
      <trkpt lat="45.34898" lon="5.74526">
        <ele>978.337395226</ele>
        <time>2016-06-12T10:45:24Z</time>
      </trkpt>
      <trkpt lat="45.34913" lon="5.74587">
        <ele>981.385627413</ele>
        <time>2016-06-12T10:45:45Z</time>
      </trkpt>
      <trkpt lat="45.3491" lon="5.7467">
        <ele>983.103609812</ele>
        <time>2016-06-12T10:46:05Z</time>
      </trkpt>
      <trkpt lat="45.34913" lon="5.74666">
        <ele>983.103609812</ele>
        <time>2016-06-12T10:46:09Z</time>
      </trkpt>
      <trkpt lat="45.34915" lon="5.74668">
        <ele>983.103609812</ele>
        <time>2016-06-12T10:46:14Z</time>
      </trkpt>
      <trkpt lat="45.34915" lon="5.74671">
        <ele>983.103609812</ele>
        <time>2016-06-12T10:46:19Z</time>
      </trkpt>
      <trkpt lat="45.3491" lon="5.74678">
        <ele>985.655179761</ele>
        <time>2016-06-12T10:46:24Z</time>
      </trkpt>
      <trkpt lat="45.34908" lon="5.74686">
        <ele>985.655179761</ele>
        <time>2016-06-12T10:46:30Z</time>
      </trkpt>
      <trkpt lat="45.34902" lon="5.74725">
        <ele>988.394435965</ele>
        <time>2016-06-12T10:46:40Z</time>
      </trkpt>
      <trkpt lat="45.34903" lon="5.74746">
        <ele>990.712347767</ele>
        <time>2016-06-12T10:46:45Z</time>
      </trkpt>
      <trkpt lat="45.3491" lon="5.74794">
        <ele>992.490384053</ele>
        <time>2016-06-12T10:47:00Z</time>
      </trkpt>
      <trkpt lat="45.34914" lon="5.74807">
        <ele>994.373154729</ele>
        <time>2016-06-12T10:47:05Z</time>
      </trkpt>
      <trkpt lat="45.34928" lon="5.74844">
        <ele>995.90588493</ele>
        <time>2016-06-12T10:47:15Z</time>
      </trkpt>
      <trkpt lat="45.34922" lon="5.74861">
        <ele>996.21475885</ele>
        <time>2016-06-12T10:47:20Z</time>
      </trkpt>
      <trkpt lat="45.34915" lon="5.74887">
        <ele>995.703724016</ele>
        <time>2016-06-12T10:47:30Z</time>
      </trkpt>
      <trkpt lat="45.34879" lon="5.74922">
        <ele>994.297662384</ele>
        <time>2016-06-12T10:47:45Z</time>
      </trkpt>
      <trkpt lat="45.34846" lon="5.7497">
        <ele>991.78024318</ele>
        <time>2016-06-12T10:48:05Z</time>
      </trkpt>
      <trkpt lat="45.34822" lon="5.75045">
        <ele>989.313249382</ele>
        <time>2016-06-12T10:48:30Z</time>
      </trkpt>
      <trkpt lat="45.34802" lon="5.75104">
        <ele>987.211718201</ele>
        <time>2016-06-12T10:48:50Z</time>
      </trkpt>
      <trkpt lat="45.34789" lon="5.75154">
        <ele>986.213291208</ele>
        <time>2016-06-12T10:49:03Z</time>
      </trkpt>
      <trkpt lat="45.34789" lon="5.75159">
        <ele>986.213291208</ele>
        <time>2016-06-12T10:49:04Z</time>
      </trkpt>
      <trkpt lat="45.34785" lon="5.75199">
        <ele>986.239746446</ele>
        <time>2016-06-12T10:49:16Z</time>
      </trkpt>
      <trkpt lat="45.34786" lon="5.75221">
        <ele>986.316925202</ele>
        <time>2016-06-12T10:49:23Z</time>
      </trkpt>
      <trkpt lat="45.34785" lon="5.75229">
        <ele>986.316925202</ele>
        <time>2016-06-12T10:49:24Z</time>
      </trkpt>
      <trkpt lat="45.34785" lon="5.75259">
        <ele>986.745885289</ele>
        <time>2016-06-12T10:49:30Z</time>
      </trkpt>
      <trkpt lat="45.34786" lon="5.7529">
        <ele>987.503044377</ele>
        <time>2016-06-12T10:49:39Z</time>
      </trkpt>
      <trkpt lat="45.34787" lon="5.7531">
        <ele>988.862665642</ele>
        <time>2016-06-12T10:49:45Z</time>
      </trkpt>
      <trkpt lat="45.34787" lon="5.75336">
        <ele>989.592014652</ele>
        <time>2016-06-12T10:49:55Z</time>
      </trkpt>
      <trkpt lat="45.34784" lon="5.7535">
        <ele>990.0419</ele>
        <time>2016-06-12T10:50:00Z</time>
      </trkpt>
      <trkpt lat="45.34788" lon="5.75392">
        <ele>989.354525491</ele>
        <time>2016-06-12T10:50:10Z</time>
      </trkpt>
      <trkpt lat="45.34785" lon="5.75403">
        <ele>989.354525491</ele>
        <time>2016-06-12T10:50:15Z</time>
      </trkpt>
      <trkpt lat="45.34773" lon="5.75447">
        <ele>988.95316991</ele>
        <time>2016-06-12T10:50:25Z</time>
      </trkpt>
      <trkpt lat="45.3477" lon="5.75458">
        <ele>988.95316991</ele>
        <time>2016-06-12T10:50:30Z</time>
      </trkpt>
      <trkpt lat="45.34757" lon="5.75508">
        <ele>988.233661491</ele>
        <time>2016-06-12T10:50:50Z</time>
      </trkpt>
      <trkpt lat="45.34712" lon="5.75584">
        <ele>989.425242641</ele>
        <time>2016-06-12T10:51:10Z</time>
      </trkpt>
      <trkpt lat="45.3471" lon="5.75592">
        <ele>989.425242641</ele>
        <time>2016-06-12T10:51:13Z</time>
      </trkpt>
      <trkpt lat="45.34709" lon="5.75591">
        <ele>989.425242641</ele>
        <time>2016-06-12T10:51:14Z</time>
      </trkpt>
      <trkpt lat="45.34711" lon="5.75597">
        <ele>990.330584348</ele>
        <time>2016-06-12T10:51:15Z</time>
      </trkpt>
      <trkpt lat="45.34709" lon="5.75595">
        <ele>990.330584348</ele>
        <time>2016-06-12T10:51:16Z</time>
      </trkpt>
      <trkpt lat="45.3469" lon="5.75612">
        <ele>990.974595259</ele>
        <time>2016-06-12T10:51:29Z</time>
      </trkpt>
      <trkpt lat="45.34689" lon="5.75612">
        <ele>990.974595259</ele>
        <time>2016-06-12T10:51:29Z</time>
      </trkpt>
      <trkpt lat="45.34687" lon="5.75616">
        <ele>990.974595259</ele>
        <time>2016-06-12T10:51:45Z</time>
      </trkpt>
      <trkpt lat="45.34687" lon="5.75615">
        <ele>990.974595259</ele>
        <time>2016-06-12T10:51:50Z</time>
      </trkpt>
      <trkpt lat="45.34665" lon="5.7562">
        <ele>990.652285648</ele>
        <time>2016-06-12T10:52:00Z</time>
      </trkpt>
      <trkpt lat="45.34657" lon="5.75615">
        <ele>990.652285648</ele>
        <time>2016-06-12T10:52:05Z</time>
      </trkpt>
      <trkpt lat="45.34637" lon="5.75615">
        <ele>990.607635091</ele>
        <time>2016-06-12T10:52:15Z</time>
      </trkpt>
      <trkpt lat="45.34623" lon="5.75621">
        <ele>990.387396412</ele>
        <time>2016-06-12T10:52:20Z</time>
      </trkpt>
      <trkpt lat="45.346" lon="5.75643">
        <ele>990.009449308</ele>
        <time>2016-06-12T10:52:30Z</time>
      </trkpt>
      <trkpt lat="45.3459" lon="5.75648">
        <ele>989.635318622</ele>
        <time>2016-06-12T10:52:35Z</time>
      </trkpt>
      <trkpt lat="45.34571" lon="5.75674">
        <ele>989.558528653</ele>
        <time>2016-06-12T10:52:45Z</time>
      </trkpt>
      <trkpt lat="45.34561" lon="5.75688">
        <ele>989.326051265</ele>
        <time>2016-06-12T10:52:50Z</time>
      </trkpt>
      <trkpt lat="45.34478" lon="5.75703">
        <ele>989.386852855</ele>
        <time>2016-06-12T10:53:27Z</time>
      </trkpt>
      <trkpt lat="45.34476" lon="5.75701">
        <ele>989.386852855</ele>
        <time>2016-06-12T10:53:27Z</time>
      </trkpt>
      <trkpt lat="45.34471" lon="5.757">
        <ele>989.386852855</ele>
        <time>2016-06-12T10:53:28Z</time>
      </trkpt>
      <trkpt lat="45.34477" lon="5.75701">
        <ele>988.999433919</ele>
        <time>2016-06-12T10:53:29Z</time>
      </trkpt>
      <trkpt lat="45.34486" lon="5.75704">
        <ele>988.999433919</ele>
        <time>2016-06-12T10:53:34Z</time>
      </trkpt>
      <trkpt lat="45.34486" lon="5.75704">
        <ele>989.067255374</ele>
        <time>2016-06-12T10:53:39Z</time>
      </trkpt>
      <trkpt lat="45.34487" lon="5.75705">
        <ele>989.067255374</ele>
        <time>2016-06-12T10:53:44Z</time>
      </trkpt>
      <trkpt lat="45.34487" lon="5.75705">
        <ele>989.067255374</ele>
        <time>2016-06-12T10:53:49Z</time>
      </trkpt>
      <trkpt lat="45.34487" lon="5.75705">
        <ele>989.067255374</ele>
        <time>2016-06-12T10:53:54Z</time>
      </trkpt>
      <trkpt lat="45.34487" lon="5.75705">
        <ele>989.067255374</ele>
        <time>2016-06-12T10:53:59Z</time>
      </trkpt>
      <trkpt lat="45.34486" lon="5.75704">
        <ele>989.067255374</ele>
        <time>2016-06-12T10:54:04Z</time>
      </trkpt>
      <trkpt lat="45.34487" lon="5.75702">
        <ele>989.067255374</ele>
        <time>2016-06-12T10:54:09Z</time>
      </trkpt>
      <trkpt lat="45.34483" lon="5.75696">
        <ele>989.067255374</ele>
        <time>2016-06-12T10:54:14Z</time>
      </trkpt>
      <trkpt lat="45.34481" lon="5.75691">
        <ele>989.414356028</ele>
        <time>2016-06-12T10:54:19Z</time>
      </trkpt>
      <trkpt lat="45.34478" lon="5.75688">
        <ele>989.414356028</ele>
        <time>2016-06-12T10:54:25Z</time>
      </trkpt>
      <trkpt lat="45.34466" lon="5.75671">
        <ele>989.732861522</ele>
        <time>2016-06-12T10:54:35Z</time>
      </trkpt>
      <trkpt lat="45.34462" lon="5.75664">
        <ele>989.732861522</ele>
        <time>2016-06-12T10:54:40Z</time>
      </trkpt>
      <trkpt lat="45.34454" lon="5.75656">
        <ele>990.747352566</ele>
        <time>2016-06-12T10:54:49Z</time>
      </trkpt>
      <trkpt lat="45.34449" lon="5.75647">
        <ele>990.747352566</ele>
        <time>2016-06-12T10:54:55Z</time>
      </trkpt>
      <trkpt lat="45.34441" lon="5.7562">
        <ele>991.972990696</ele>
        <time>2016-06-12T10:55:05Z</time>
      </trkpt>
      <trkpt lat="45.34433" lon="5.75607">
        <ele>993.104349644</ele>
        <time>2016-06-12T10:55:10Z</time>
      </trkpt>
      <trkpt lat="45.3442" lon="5.75582">
        <ele>994.291198423</ele>
        <time>2016-06-12T10:55:20Z</time>
      </trkpt>
      <trkpt lat="45.34415" lon="5.75571">
        <ele>995.527797149</ele>
        <time>2016-06-12T10:55:25Z</time>
      </trkpt>
      <trkpt lat="45.34406" lon="5.75544">
        <ele>996.231863923</ele>
        <time>2016-06-12T10:55:35Z</time>
      </trkpt>
      <trkpt lat="45.34403" lon="5.75534">
        <ele>996.231863923</ele>
        <time>2016-06-12T10:55:40Z</time>
      </trkpt>
      <trkpt lat="45.34392" lon="5.75508">
        <ele>997.018692683</ele>
        <time>2016-06-12T10:55:50Z</time>
      </trkpt>
      <trkpt lat="45.34382" lon="5.755">
        <ele>997.88133788</ele>
        <time>2016-06-12T10:55:55Z</time>
      </trkpt>
      <trkpt lat="45.34374" lon="5.75492">
        <ele>998.236298279</ele>
        <time>2016-06-12T10:55:59Z</time>
      </trkpt>
      <trkpt lat="45.34367" lon="5.75491">
        <ele>998.236298279</ele>
        <time>2016-06-12T10:56:04Z</time>
      </trkpt>
      <trkpt lat="45.34362" lon="5.75489">
        <ele>998.55362476</ele>
        <time>2016-06-12T10:56:09Z</time>
      </trkpt>
      <trkpt lat="45.34307" lon="5.7546">
        <ele>999.701585178</ele>
        <time>2016-06-12T10:56:45Z</time>
      </trkpt>
      <trkpt lat="45.34281" lon="5.75447">
        <ele>1001.040209445</ele>
        <time>2016-06-12T10:56:57Z</time>
      </trkpt>
      <trkpt lat="45.34249" lon="5.75407">
        <ele>1002.264320042</ele>
        <time>2016-06-12T10:57:20Z</time>
      </trkpt>
      <trkpt lat="45.34239" lon="5.75392">
        <ele>1004.533737943</ele>
        <time>2016-06-12T10:57:21Z</time>
      </trkpt>
      <trkpt lat="45.3422" lon="5.75355">
        <ele>1006.75663803</ele>
        <time>2016-06-12T10:57:35Z</time>
      </trkpt>
      <trkpt lat="45.34217" lon="5.75354">
        <ele>1006.75663803</ele>
        <time>2016-06-12T10:57:37Z</time>
      </trkpt>
      <trkpt lat="45.34217" lon="5.75353">
        <ele>1006.75663803</ele>
        <time>2016-06-12T10:57:37Z</time>
      </trkpt>
      <trkpt lat="45.3421" lon="5.75336">
        <ele>1007.921462952</ele>
        <time>2016-06-12T10:57:45Z</time>
      </trkpt>
      <trkpt lat="45.34203" lon="5.75329">
        <ele>1007.921462952</ele>
        <time>2016-06-12T10:57:50Z</time>
      </trkpt>
      <trkpt lat="45.3418" lon="5.75303">
        <ele>1009.401855713</ele>
        <time>2016-06-12T10:58:05Z</time>
      </trkpt>
      <trkpt lat="45.34174" lon="5.75296">
        <ele>1009.401855713</ele>
        <time>2016-06-12T10:58:10Z</time>
      </trkpt>
      <trkpt lat="45.34153" lon="5.75296">
        <ele>1011.171470563</ele>
        <time>2016-06-12T10:58:20Z</time>
      </trkpt>
      <trkpt lat="45.34139" lon="5.75284">
        <ele>1012.628131056</ele>
        <time>2016-06-12T10:58:25Z</time>
      </trkpt>
      <trkpt lat="45.3413" lon="5.75272">
        <ele>1014.080320241</ele>
        <time>2016-06-12T10:58:35Z</time>
      </trkpt>
      <trkpt lat="45.34125" lon="5.75267">
        <ele>1014.080320241</ele>
        <time>2016-06-12T10:58:40Z</time>
      </trkpt>
      <trkpt lat="45.34106" lon="5.75255">
        <ele>1015.525410185</ele>
        <time>2016-06-12T10:58:50Z</time>
      </trkpt>
      <trkpt lat="45.34098" lon="5.75247">
        <ele>1016.67256891</ele>
        <time>2016-06-12T10:58:55Z</time>
      </trkpt>
      <trkpt lat="45.34062" lon="5.75227">
        <ele>1017.97442033</ele>
        <time>2016-06-12T10:59:14Z</time>
      </trkpt>
      <trkpt lat="45.34055" lon="5.75219">
        <ele>1017.97442033</ele>
        <time>2016-06-12T10:59:15Z</time>
      </trkpt>
      <trkpt lat="45.3405" lon="5.75199">
        <ele>1021.724788982</ele>
        <time>2016-06-12T10:59:30Z</time>
      </trkpt>
      <trkpt lat="45.34043" lon="5.75192">
        <ele>1025.570982534</ele>
        <time>2016-06-12T10:59:34Z</time>
      </trkpt>
      <trkpt lat="45.34039" lon="5.75188">
        <ele>1025.570982534</ele>
        <time>2016-06-12T10:59:39Z</time>
      </trkpt>
      <trkpt lat="45.34039" lon="5.75186">
        <ele>1025.570982534</ele>
        <time>2016-06-12T10:59:44Z</time>
      </trkpt>
      <trkpt lat="45.34039" lon="5.75184">
        <ele>1025.570982534</ele>
        <time>2016-06-12T10:59:49Z</time>
      </trkpt>
      <trkpt lat="45.34038" lon="5.75184">
        <ele>1025.570982534</ele>
        <time>2016-06-12T10:59:54Z</time>
      </trkpt>
      <trkpt lat="45.34034" lon="5.75182">
        <ele>1028.775536602</ele>
        <time>2016-06-12T10:59:59Z</time>
      </trkpt>
      <trkpt lat="45.34006" lon="5.75163">
        <ele>1031.666650786</ele>
        <time>2016-06-12T11:00:10Z</time>
      </trkpt>
      <trkpt lat="45.33997" lon="5.75152">
        <ele>1034.549345374</ele>
        <time>2016-06-12T11:00:15Z</time>
      </trkpt>
      <trkpt lat="45.33991" lon="5.75138">
        <ele>1038.427263964</ele>
        <time>2016-06-12T11:00:25Z</time>
      </trkpt>
      <trkpt lat="45.33988" lon="5.75133">
        <ele>1038.427263964</ele>
        <time>2016-06-12T11:00:30Z</time>
      </trkpt>
      <trkpt lat="45.33961" lon="5.7511">
        <ele>1042.20893033</ele>
        <time>2016-06-12T11:00:45Z</time>
      </trkpt>
      <trkpt lat="45.33948" lon="5.75103">
        <ele>1046.037092975</ele>
        <time>2016-06-12T11:00:50Z</time>
      </trkpt>
      <trkpt lat="45.3393" lon="5.75106">
        <ele>1049.755690981</ele>
        <time>2016-06-12T11:01:00Z</time>
      </trkpt>
      <trkpt lat="45.3389" lon="5.75057">
        <ele>1053.076484546</ele>
        <time>2016-06-12T11:01:20Z</time>
      </trkpt>
      <trkpt lat="45.33886" lon="5.75053">
        <ele>1053.076484546</ele>
        <time>2016-06-12T11:01:20Z</time>
      </trkpt>
      <trkpt lat="45.33859" lon="5.75029">
        <ele>1056.454529332</ele>
        <time>2016-06-12T11:01:36Z</time>
      </trkpt>
      <trkpt lat="45.33859" lon="5.75027">
        <ele>1056.454529332</ele>
        <time>2016-06-12T11:01:36Z</time>
      </trkpt>
      <trkpt lat="45.3386" lon="5.75028">
        <ele>1056.454529332</ele>
        <time>2016-06-12T11:01:39Z</time>
      </trkpt>
      <trkpt lat="45.33858" lon="5.75025">
        <ele>1056.454529332</ele>
        <time>2016-06-12T11:02:00Z</time>
      </trkpt>
      <trkpt lat="45.33846" lon="5.75018">
        <ele>1058.581634314</ele>
        <time>2016-06-12T11:02:14Z</time>
      </trkpt>
      <trkpt lat="45.33843" lon="5.7502">
        <ele>1058.581634314</ele>
        <time>2016-06-12T11:02:20Z</time>
      </trkpt>
      <trkpt lat="45.33844" lon="5.75019">
        <ele>1058.581634314</ele>
        <time>2016-06-12T11:02:30Z</time>
      </trkpt>
      <trkpt lat="45.33844" lon="5.75019">
        <ele>1058.581634314</ele>
        <time>2016-06-12T11:02:35Z</time>
      </trkpt>
      <trkpt lat="45.33844" lon="5.7502">
        <ele>1058.581634314</ele>
        <time>2016-06-12T11:02:45Z</time>
      </trkpt>
      <trkpt lat="45.33846" lon="5.75017">
        <ele>1058.581634314</ele>
        <time>2016-06-12T11:02:50Z</time>
      </trkpt>
      <trkpt lat="45.33859" lon="5.74999">
        <ele>1060.555881888</ele>
        <time>2016-06-12T11:03:00Z</time>
      </trkpt>
      <trkpt lat="45.33864" lon="5.74995">
        <ele>1060.555881888</ele>
        <time>2016-06-12T11:03:05Z</time>
      </trkpt>
      <trkpt lat="45.3387" lon="5.74974">
        <ele>1063.106874244</ele>
        <time>2016-06-12T11:03:15Z</time>
      </trkpt>
      <trkpt lat="45.33871" lon="5.74963">
        <ele>1063.106874244</ele>
        <time>2016-06-12T11:03:20Z</time>
      </trkpt>
      <trkpt lat="45.33875" lon="5.74945">
        <ele>1065.900169834</ele>
        <time>2016-06-12T11:03:30Z</time>
      </trkpt>
      <trkpt lat="45.33879" lon="5.74927">
        <ele>1067.904796834</ele>
        <time>2016-06-12T11:03:35Z</time>
      </trkpt>
      <trkpt lat="45.33878" lon="5.74899">
        <ele>1069.032760321</ele>
        <time>2016-06-12T11:03:45Z</time>
      </trkpt>
      <trkpt lat="45.33883" lon="5.7487">
        <ele>1071.94349486</ele>
        <time>2016-06-12T11:04:00Z</time>
      </trkpt>
      <trkpt lat="45.3389" lon="5.74853">
        <ele>1074.195956562</ele>
        <time>2016-06-12T11:04:10Z</time>
      </trkpt>
      <trkpt lat="45.33891" lon="5.7485">
        <ele>1074.195956562</ele>
        <time>2016-06-12T11:04:14Z</time>
      </trkpt>
      <trkpt lat="45.33899" lon="5.74828">
        <ele>1075.980592719</ele>
        <time>2016-06-12T11:04:33Z</time>
      </trkpt>
      <trkpt lat="45.339" lon="5.74823">
        <ele>1075.980592719</ele>
        <time>2016-06-12T11:04:34Z</time>
      </trkpt>
      <trkpt lat="45.33907" lon="5.74818">
        <ele>1078.772359863</ele>
        <time>2016-06-12T11:04:42Z</time>
      </trkpt>
      <trkpt lat="45.33909" lon="5.74815">
        <ele>1078.772359863</ele>
        <time>2016-06-12T11:04:44Z</time>
      </trkpt>
      <trkpt lat="45.33908" lon="5.74813">
        <ele>1078.772359863</ele>
        <time>2016-06-12T11:04:49Z</time>
      </trkpt>
      <trkpt lat="45.33908" lon="5.74813">
        <ele>1078.772359863</ele>
        <time>2016-06-12T11:04:54Z</time>
      </trkpt>
      <trkpt lat="45.3392" lon="5.74809">
        <ele>1083.935135785</ele>
        <time>2016-06-12T11:05:21Z</time>
      </trkpt>
      <trkpt lat="45.3392" lon="5.7481">
        <ele>1083.935135785</ele>
        <time>2016-06-12T11:05:22Z</time>
      </trkpt>
      <trkpt lat="45.33926" lon="5.74803">
        <ele>1083.935135785</ele>
        <time>2016-06-12T11:05:26Z</time>
      </trkpt>
      <trkpt lat="45.33932" lon="5.74793">
        <ele>1088.402653126</ele>
        <time>2016-06-12T11:05:33Z</time>
      </trkpt>
      <trkpt lat="45.33933" lon="5.74792">
        <ele>1088.402653126</ele>
        <time>2016-06-12T11:05:35Z</time>
      </trkpt>
      <trkpt lat="45.33938" lon="5.74788">
        <ele>1088.402653126</ele>
        <time>2016-06-12T11:05:40Z</time>
      </trkpt>
      <trkpt lat="45.33943" lon="5.74778">
        <ele>1092.362465957</ele>
        <time>2016-06-12T11:05:50Z</time>
      </trkpt>
      <trkpt lat="45.33942" lon="5.74778">
        <ele>1092.362465957</ele>
        <time>2016-06-12T11:05:55Z</time>
      </trkpt>
      <trkpt lat="45.3394" lon="5.74765">
        <ele>1096.278159822</ele>
        <time>2016-06-12T11:06:05Z</time>
      </trkpt>
      <trkpt lat="45.33935" lon="5.74753">
        <ele>1100.147218831</ele>
        <time>2016-06-12T11:06:10Z</time>
      </trkpt>
      <trkpt lat="45.33938" lon="5.74748">
        <ele>1100.147218831</ele>
        <time>2016-06-12T11:06:20Z</time>
      </trkpt>
      <trkpt lat="45.3394" lon="5.74748">
        <ele>1100.147218831</ele>
        <time>2016-06-12T11:06:25Z</time>
      </trkpt>
      <trkpt lat="45.33941" lon="5.74747">
        <ele>1100.147218831</ele>
        <time>2016-06-12T11:06:35Z</time>
      </trkpt>
      <trkpt lat="45.33941" lon="5.74747">
        <ele>1100.147218831</ele>
        <time>2016-06-12T11:06:40Z</time>
      </trkpt>
      <trkpt lat="45.33968" lon="5.74737">
        <ele>1104.255848024</ele>
        <time>2016-06-12T11:07:20Z</time>
      </trkpt>
      <trkpt lat="45.33993" lon="5.74713">
        <ele>1109.301078621</ele>
        <time>2016-06-12T11:08:25Z</time>
      </trkpt>
      <trkpt lat="45.33993" lon="5.74709">
        <ele>1109.301078621</ele>
        <time>2016-06-12T11:08:26Z</time>
      </trkpt>
      <trkpt lat="45.33992" lon="5.74701">
        <ele>1109.301078621</ele>
        <time>2016-06-12T11:08:28Z</time>
      </trkpt>
      <trkpt lat="45.33985" lon="5.74689">
        <ele>1114.917516875</ele>
        <time>2016-06-12T11:08:39Z</time>
      </trkpt>
      <trkpt lat="45.33988" lon="5.74688">
        <ele>1114.917516875</ele>
        <time>2016-06-12T11:08:39Z</time>
      </trkpt>
      <trkpt lat="45.33986" lon="5.74677">
        <ele>1121.485776262</ele>
        <time>2016-06-12T11:08:45Z</time>
      </trkpt>
      <trkpt lat="45.3398" lon="5.7468">
        <ele>1121.485776262</ele>
        <time>2016-06-12T11:08:55Z</time>
      </trkpt>
      <trkpt lat="45.33979" lon="5.74675">
        <ele>1128.0590431</ele>
        <time>2016-06-12T11:09:00Z</time>
      </trkpt>
      <trkpt lat="45.33976" lon="5.74674">
        <ele>1128.0590431</ele>
        <time>2016-06-12T11:09:12Z</time>
      </trkpt>
      <trkpt lat="45.33977" lon="5.74674">
        <ele>1128.0590431</ele>
        <time>2016-06-12T11:09:14Z</time>
      </trkpt>
      <trkpt lat="45.33976" lon="5.7467">
        <ele>1128.0590431</ele>
        <time>2016-06-12T11:09:25Z</time>
      </trkpt>
      <trkpt lat="45.33976" lon="5.74666">
        <ele>1128.0590431</ele>
        <time>2016-06-12T11:09:30Z</time>
      </trkpt>
      <trkpt lat="45.33971" lon="5.74661">
        <ele>1135.345518162</ele>
        <time>2016-06-12T11:09:40Z</time>
      </trkpt>
      <trkpt lat="45.33971" lon="5.74661">
        <ele>1135.345518162</ele>
        <time>2016-06-12T11:09:45Z</time>
      </trkpt>
      <trkpt lat="45.33963" lon="5.74654">
        <ele>1143.423182339</ele>
        <time>2016-06-12T11:09:55Z</time>
      </trkpt>
      <trkpt lat="45.33962" lon="5.74647">
        <ele>1143.423182339</ele>
        <time>2016-06-12T11:10:00Z</time>
      </trkpt>
      <trkpt lat="45.33957" lon="5.74631">
        <ele>1151.641777968</ele>
        <time>2016-06-12T11:10:10Z</time>
      </trkpt>
      <trkpt lat="45.33952" lon="5.74626">
        <ele>1151.641777968</ele>
        <time>2016-06-12T11:10:15Z</time>
      </trkpt>
      <trkpt lat="45.33941" lon="5.74611">
        <ele>1159.831059097</ele>
        <time>2016-06-12T11:10:25Z</time>
      </trkpt>
      <trkpt lat="45.33939" lon="5.74603">
        <ele>1159.831059097</ele>
        <time>2016-06-12T11:10:30Z</time>
      </trkpt>
      <trkpt lat="45.33937" lon="5.74599">
        <ele>1167.545462379</ele>
        <time>2016-06-12T11:10:35Z</time>
      </trkpt>
      <trkpt lat="45.3393" lon="5.74598">
        <ele>1167.545462379</ele>
        <time>2016-06-12T11:10:45Z</time>
      </trkpt>
      <trkpt lat="45.33925" lon="5.74595">
        <ele>1175.094401751</ele>
        <time>2016-06-12T11:11:03Z</time>
      </trkpt>
      <trkpt lat="45.33923" lon="5.74594">
        <ele>1175.094401751</ele>
        <time>2016-06-12T11:11:03Z</time>
      </trkpt>
      <trkpt lat="45.33919" lon="5.74596">
        <ele>1175.094401751</ele>
        <time>2016-06-12T11:11:24Z</time>
      </trkpt>
      <trkpt lat="45.33919" lon="5.74596">
        <ele>1175.094401751</ele>
        <time>2016-06-12T11:11:24Z</time>
      </trkpt>
      <trkpt lat="45.33919" lon="5.74596">
        <ele>1175.094401751</ele>
        <time>2016-06-12T11:11:29Z</time>
      </trkpt>
      <trkpt lat="45.33919" lon="5.74596">
        <ele>1175.094401751</ele>
        <time>2016-06-12T11:11:34Z</time>
      </trkpt>
      <trkpt lat="45.33919" lon="5.74596">
        <ele>1175.094401751</ele>
        <time>2016-06-12T11:11:39Z</time>
      </trkpt>
      <trkpt lat="45.33919" lon="5.74596">
        <ele>1175.094401751</ele>
        <time>2016-06-12T11:11:44Z</time>
      </trkpt>
      <trkpt lat="45.33919" lon="5.74588">
        <ele>1182.333042963</ele>
        <time>2016-06-12T11:11:50Z</time>
      </trkpt>
      <trkpt lat="45.3392" lon="5.74576">
        <ele>1182.333042963</ele>
        <time>2016-06-12T11:12:00Z</time>
      </trkpt>
      <trkpt lat="45.33916" lon="5.74574">
        <ele>1189.12843234</ele>
        <time>2016-06-12T11:12:05Z</time>
      </trkpt>
      <trkpt lat="45.33917" lon="5.74573">
        <ele>1189.12843234</ele>
        <time>2016-06-12T11:12:20Z</time>
      </trkpt>
      <trkpt lat="45.33918" lon="5.74573">
        <ele>1189.12843234</ele>
        <time>2016-06-12T11:12:25Z</time>
      </trkpt>
      <trkpt lat="45.33905" lon="5.74557">
        <ele>1194.206082968</ele>
        <time>2016-06-12T11:12:35Z</time>
      </trkpt>
      <trkpt lat="45.339" lon="5.74556">
        <ele>1194.206082968</ele>
        <time>2016-06-12T11:12:40Z</time>
      </trkpt>
      <trkpt lat="45.33903" lon="5.74549">
        <ele>1199.993196454</ele>
        <time>2016-06-12T11:12:50Z</time>
      </trkpt>
      <trkpt lat="45.33904" lon="5.74547">
        <ele>1199.993196454</ele>
        <time>2016-06-12T11:12:55Z</time>
      </trkpt>
      <trkpt lat="45.33904" lon="5.74547">
        <ele>1199.993196454</ele>
        <time>2016-06-12T11:13:05Z</time>
      </trkpt>
      <trkpt lat="45.33904" lon="5.74547">
        <ele>1199.993196454</ele>
        <time>2016-06-12T11:13:10Z</time>
      </trkpt>
      <trkpt lat="45.33905" lon="5.74547">
        <ele>1199.993196454</ele>
        <time>2016-06-12T11:13:20Z</time>
      </trkpt>
      <trkpt lat="45.33899" lon="5.74527">
        <ele>1206.575328459</ele>
        <time>2016-06-12T11:13:40Z</time>
      </trkpt>
      <trkpt lat="45.33899" lon="5.74524">
        <ele>1206.575328459</ele>
        <time>2016-06-12T11:13:41Z</time>
      </trkpt>
      <trkpt lat="45.33909" lon="5.74504">
        <ele>1213.021078117</ele>
        <time>2016-06-12T11:14:01Z</time>
      </trkpt>
      <trkpt lat="45.3391" lon="5.74504">
        <ele>1213.021078117</ele>
        <time>2016-06-12T11:14:13Z</time>
      </trkpt>
      <trkpt lat="45.3391" lon="5.74504">
        <ele>1213.021078117</ele>
        <time>2016-06-12T11:14:13Z</time>
      </trkpt>
      <trkpt lat="45.3391" lon="5.74504">
        <ele>1213.021078117</ele>
        <time>2016-06-12T11:14:14Z</time>
      </trkpt>
      <trkpt lat="45.3391" lon="5.74504">
        <ele>1213.021078117</ele>
        <time>2016-06-12T11:14:25Z</time>
      </trkpt>
      <trkpt lat="45.3391" lon="5.74503">
        <ele>1213.021078117</ele>
        <time>2016-06-12T11:14:30Z</time>
      </trkpt>
      <trkpt lat="45.33911" lon="5.74503">
        <ele>1213.021078117</ele>
        <time>2016-06-12T11:14:40Z</time>
      </trkpt>
      <trkpt lat="45.33913" lon="5.74503">
        <ele>1213.021078117</ele>
        <time>2016-06-12T11:14:45Z</time>
      </trkpt>
      <trkpt lat="45.3393" lon="5.74482">
        <ele>1218.900549765</ele>
        <time>2016-06-12T11:14:55Z</time>
      </trkpt>
      <trkpt lat="45.33931" lon="5.74481">
        <ele>1218.900549765</ele>
        <time>2016-06-12T11:15:00Z</time>
      </trkpt>
      <trkpt lat="45.3393" lon="5.74471">
        <ele>1218.900549765</ele>
        <time>2016-06-12T11:15:15Z</time>
      </trkpt>
      <trkpt lat="45.33933" lon="5.74434">
        <ele>1227.564352942</ele>
        <time>2016-06-12T11:15:43Z</time>
      </trkpt>
      <trkpt lat="45.33933" lon="5.74428">
        <ele>1227.564352942</ele>
        <time>2016-06-12T11:15:47Z</time>
      </trkpt>
      <trkpt lat="45.33927" lon="5.74408">
        <ele>1236.344911068</ele>
        <time>2016-06-12T11:16:18Z</time>
      </trkpt>
      <trkpt lat="45.33928" lon="5.74398">
        <ele>1236.344911068</ele>
        <time>2016-06-12T11:16:26Z</time>
      </trkpt>
      <trkpt lat="45.3392" lon="5.74397">
        <ele>1245.652938328</ele>
        <time>2016-06-12T11:16:35Z</time>
      </trkpt>
      <trkpt lat="45.33916" lon="5.74398">
        <ele>1245.652938328</ele>
        <time>2016-06-12T11:16:40Z</time>
      </trkpt>
      <trkpt lat="45.33915" lon="5.74386">
        <ele>1255.003180707</ele>
        <time>2016-06-12T11:16:50Z</time>
      </trkpt>
      <trkpt lat="45.33913" lon="5.74388">
        <ele>1255.003180707</ele>
        <time>2016-06-12T11:16:54Z</time>
      </trkpt>
      <trkpt lat="45.33912" lon="5.74383">
        <ele>1255.003180707</ele>
        <time>2016-06-12T11:16:59Z</time>
      </trkpt>
      <trkpt lat="45.33911" lon="5.74383">
        <ele>1255.003180707</ele>
        <time>2016-06-12T11:17:04Z</time>
      </trkpt>
      <trkpt lat="45.33912" lon="5.74383">
        <ele>1255.003180707</ele>
        <time>2016-06-12T11:17:09Z</time>
      </trkpt>
      <trkpt lat="45.33914" lon="5.74382">
        <ele>1255.003180707</ele>
        <time>2016-06-12T11:17:14Z</time>
      </trkpt>
      <trkpt lat="45.33914" lon="5.74379">
        <ele>1264.37863972</ele>
        <time>2016-06-12T11:17:19Z</time>
      </trkpt>
      <trkpt lat="45.33914" lon="5.7438">
        <ele>1264.37863972</ele>
        <time>2016-06-12T11:17:24Z</time>
      </trkpt>
      <trkpt lat="45.33914" lon="5.7438">
        <ele>1264.37863972</ele>
        <time>2016-06-12T11:17:30Z</time>
      </trkpt>
      <trkpt lat="45.33914" lon="5.7438">
        <ele>1264.37863972</ele>
        <time>2016-06-12T11:17:40Z</time>
      </trkpt>
      <trkpt lat="45.33914" lon="5.74379">
        <ele>1264.37863972</ele>
        <time>2016-06-12T11:17:44Z</time>
      </trkpt>
      <trkpt lat="45.33914" lon="5.74379">
        <ele>1264.37863972</ele>
        <time>2016-06-12T11:17:49Z</time>
      </trkpt>
      <trkpt lat="45.33914" lon="5.74379">
        <ele>1264.37863972</ele>
        <time>2016-06-12T11:17:55Z</time>
      </trkpt>
      <trkpt lat="45.33902" lon="5.74377">
        <ele>1272.899205422</ele>
        <time>2016-06-12T11:18:05Z</time>
      </trkpt>
      <trkpt lat="45.33897" lon="5.74372">
        <ele>1272.899205422</ele>
        <time>2016-06-12T11:18:10Z</time>
      </trkpt>
      <trkpt lat="45.33886" lon="5.74373">
        <ele>1282.058044499</ele>
        <time>2016-06-12T11:18:25Z</time>
      </trkpt>
      <trkpt lat="45.33877" lon="5.74358">
        <ele>1290.210862909</ele>
        <time>2016-06-12T11:18:40Z</time>
      </trkpt>
      <trkpt lat="45.33876" lon="5.74362">
        <ele>1290.210862909</ele>
        <time>2016-06-12T11:18:44Z</time>
      </trkpt>
      <trkpt lat="45.33874" lon="5.74365">
        <ele>1290.210862909</ele>
        <time>2016-06-12T11:18:49Z</time>
      </trkpt>
      <trkpt lat="45.33874" lon="5.74365">
        <ele>1290.210862909</ele>
        <time>2016-06-12T11:18:54Z</time>
      </trkpt>
      <trkpt lat="45.33874" lon="5.74365">
        <ele>1290.210862909</ele>
        <time>2016-06-12T11:18:59Z</time>
      </trkpt>
      <trkpt lat="45.33874" lon="5.74365">
        <ele>1290.210862909</ele>
        <time>2016-06-12T11:19:04Z</time>
      </trkpt>
      <trkpt lat="45.33874" lon="5.74365">
        <ele>1290.210862909</ele>
        <time>2016-06-12T11:19:14Z</time>
      </trkpt>
      <trkpt lat="45.33874" lon="5.74357">
        <ele>1298.287321173</ele>
        <time>2016-06-12T11:19:20Z</time>
      </trkpt>
      <trkpt lat="45.33871" lon="5.74355">
        <ele>1298.287321173</ele>
        <time>2016-06-12T11:19:30Z</time>
      </trkpt>
      <trkpt lat="45.33868" lon="5.74349">
        <ele>1298.287321173</ele>
        <time>2016-06-12T11:19:34Z</time>
      </trkpt>
      <trkpt lat="45.33874" lon="5.74331">
        <ele>1305.708272171</ele>
        <time>2016-06-12T11:19:44Z</time>
      </trkpt>
      <trkpt lat="45.33881" lon="5.74319">
        <ele>1311.362900165</ele>
        <time>2016-06-12T11:19:49Z</time>
      </trkpt>
      <trkpt lat="45.33881" lon="5.74301">
        <ele>1316.244907031</ele>
        <time>2016-06-12T11:19:59Z</time>
      </trkpt>
      <trkpt lat="45.33886" lon="5.74292">
        <ele>1316.244907031</ele>
        <time>2016-06-12T11:20:04Z</time>
      </trkpt>
      <trkpt lat="45.33875" lon="5.74295">
        <ele>1321.133405335</ele>
        <time>2016-06-12T11:20:14Z</time>
      </trkpt>
      <trkpt lat="45.33869" lon="5.74284">
        <ele>1324.877121104</ele>
        <time>2016-06-12T11:20:29Z</time>
      </trkpt>
      <trkpt lat="45.33869" lon="5.74283">
        <ele>1324.877121104</ele>
        <time>2016-06-12T11:20:44Z</time>
      </trkpt>
      <trkpt lat="45.33869" lon="5.74283">
        <ele>1324.877121104</ele>
        <time>2016-06-12T11:20:45Z</time>
      </trkpt>
      <trkpt lat="45.33869" lon="5.74283">
        <ele>1324.877121104</ele>
        <time>2016-06-12T11:20:47Z</time>
      </trkpt>
      <trkpt lat="45.33875" lon="5.74248">
        <ele>1328.142207574</ele>
        <time>2016-06-12T11:21:07Z</time>
      </trkpt>
      <trkpt lat="45.33878" lon="5.74242">
        <ele>1328.142207574</ele>
        <time>2016-06-12T11:21:07Z</time>
      </trkpt>
      <trkpt lat="45.3388" lon="5.74237">
        <ele>1330.826918096</ele>
        <time>2016-06-12T11:21:10Z</time>
      </trkpt>
      <trkpt lat="45.33892" lon="5.7423">
        <ele>1333.41527145</ele>
        <time>2016-06-12T11:21:16Z</time>
      </trkpt>
      <trkpt lat="45.33895" lon="5.7422">
        <ele>1333.41527145</ele>
        <time>2016-06-12T11:21:28Z</time>
      </trkpt>
      <trkpt lat="45.33895" lon="5.74217">
        <ele>1336.067949923</ele>
        <time>2016-06-12T11:21:29Z</time>
      </trkpt>
      <trkpt lat="45.33895" lon="5.74213">
        <ele>1336.067949923</ele>
        <time>2016-06-12T11:21:34Z</time>
      </trkpt>
      <trkpt lat="45.33897" lon="5.74186">
        <ele>1339.222008856</ele>
        <time>2016-06-12T11:21:57Z</time>
      </trkpt>
      <trkpt lat="45.33889" lon="5.74151">
        <ele>1341.839970844</ele>
        <time>2016-06-12T11:22:10Z</time>
      </trkpt>
      <trkpt lat="45.33887" lon="5.74143">
        <ele>1341.839970844</ele>
        <time>2016-06-12T11:22:14Z</time>
      </trkpt>
      <trkpt lat="45.33886" lon="5.74139">
        <ele>1341.839970844</ele>
        <time>2016-06-12T11:22:20Z</time>
      </trkpt>
      <trkpt lat="45.33886" lon="5.74122">
        <ele>1343.682693824</ele>
        <time>2016-06-12T11:22:31Z</time>
      </trkpt>
      <trkpt lat="45.3389" lon="5.74117">
        <ele>1343.682693824</ele>
        <time>2016-06-12T11:22:35Z</time>
      </trkpt>
      <trkpt lat="45.33888" lon="5.74113">
        <ele>1343.682693824</ele>
        <time>2016-06-12T11:22:40Z</time>
      </trkpt>
      <trkpt lat="45.33888" lon="5.74103">
        <ele>1345.539582016</ele>
        <time>2016-06-12T11:22:50Z</time>
      </trkpt>
      <trkpt lat="45.33886" lon="5.7409">
        <ele>1346.412661209</ele>
        <time>2016-06-12T11:22:55Z</time>
      </trkpt>
      <trkpt lat="45.33882" lon="5.74082">
        <ele>1346.412661209</ele>
        <time>2016-06-12T11:23:05Z</time>
      </trkpt>
      <trkpt lat="45.33878" lon="5.74079">
        <ele>1347.253426858</ele>
        <time>2016-06-12T11:23:10Z</time>
      </trkpt>
      <trkpt lat="45.33886" lon="5.74068">
        <ele>1347.934702372</ele>
        <time>2016-06-12T11:23:20Z</time>
      </trkpt>
      <trkpt lat="45.33883" lon="5.74045">
        <ele>1351.077096103</ele>
        <time>2016-06-12T11:23:56Z</time>
      </trkpt>
      <trkpt lat="45.33894" lon="5.73998">
        <ele>1354.05776279</ele>
        <time>2016-06-12T11:24:13Z</time>
      </trkpt>
      <trkpt lat="45.33894" lon="5.73999">
        <ele>1354.05776279</ele>
        <time>2016-06-12T11:24:14Z</time>
      </trkpt>
      <trkpt lat="45.33902" lon="5.73996">
        <ele>1354.05776279</ele>
        <time>2016-06-12T11:24:19Z</time>
      </trkpt>
      <trkpt lat="45.33904" lon="5.73996">
        <ele>1358.481933634</ele>
        <time>2016-06-12T11:24:24Z</time>
      </trkpt>
      <trkpt lat="45.339" lon="5.73993">
        <ele>1358.481933634</ele>
        <time>2016-06-12T11:24:30Z</time>
      </trkpt>
      <trkpt lat="45.33883" lon="5.73985">
        <ele>1362.085802139</ele>
        <time>2016-06-12T11:24:41Z</time>
      </trkpt>
      <trkpt lat="45.33894" lon="5.73974">
        <ele>1364.647422613</ele>
        <time>2016-06-12T11:24:45Z</time>
      </trkpt>
      <trkpt lat="45.33887" lon="5.73958">
        <ele>1366.828552709</ele>
        <time>2016-06-12T11:25:00Z</time>
      </trkpt>
      <trkpt lat="45.33883" lon="5.7395">
        <ele>1366.828552709</ele>
        <time>2016-06-12T11:25:00Z</time>
      </trkpt>
      <trkpt lat="45.3388" lon="5.73942">
        <ele>1369.387316901</ele>
        <time>2016-06-12T11:25:10Z</time>
      </trkpt>
      <trkpt lat="45.33883" lon="5.73934">
        <ele>1369.387316901</ele>
        <time>2016-06-12T11:25:15Z</time>
      </trkpt>
      <trkpt lat="45.33863" lon="5.73928">
        <ele>1371.29554385</ele>
        <time>2016-06-12T11:25:33Z</time>
      </trkpt>
      <trkpt lat="45.33855" lon="5.73915">
        <ele>1373.475639705</ele>
        <time>2016-06-12T11:25:43Z</time>
      </trkpt>
      <trkpt lat="45.3386" lon="5.73913">
        <ele>1373.475639705</ele>
        <time>2016-06-12T11:25:44Z</time>
      </trkpt>
      <trkpt lat="45.33849" lon="5.73895">
        <ele>1376.637146379</ele>
        <time>2016-06-12T11:26:19Z</time>
      </trkpt>
      <trkpt lat="45.33848" lon="5.73896">
        <ele>1376.637146379</ele>
        <time>2016-06-12T11:26:25Z</time>
      </trkpt>
      <trkpt lat="45.33848" lon="5.73896">
        <ele>1376.637146379</ele>
        <time>2016-06-12T11:26:35Z</time>
      </trkpt>
      <trkpt lat="45.33852" lon="5.73895">
        <ele>1376.637146379</ele>
        <time>2016-06-12T11:26:40Z</time>
      </trkpt>
      <trkpt lat="45.3385" lon="5.73884">
        <ele>1379.705157753</ele>
        <time>2016-06-12T11:26:50Z</time>
      </trkpt>
      <trkpt lat="45.33851" lon="5.73883">
        <ele>1379.705157753</ele>
        <time>2016-06-12T11:26:55Z</time>
      </trkpt>
      <trkpt lat="45.33852" lon="5.73882">
        <ele>1379.705157753</ele>
        <time>2016-06-12T11:27:05Z</time>
      </trkpt>
      <trkpt lat="45.33852" lon="5.73882">
        <ele>1379.705157753</ele>
        <time>2016-06-12T11:27:10Z</time>
      </trkpt>
      <trkpt lat="45.33849" lon="5.73879">
        <ele>1379.705157753</ele>
        <time>2016-06-12T11:27:20Z</time>
      </trkpt>
      <trkpt lat="45.33847" lon="5.73882">
        <ele>1379.705157753</ele>
        <time>2016-06-12T11:27:25Z</time>
      </trkpt>
      <trkpt lat="45.33846" lon="5.73885">
        <ele>1384.133643653</ele>
        <time>2016-06-12T11:27:35Z</time>
      </trkpt>
      <trkpt lat="45.33846" lon="5.73885">
        <ele>1384.133643653</ele>
        <time>2016-06-12T11:27:49Z</time>
      </trkpt>
      <trkpt lat="45.33846" lon="5.73885">
        <ele>1384.133643653</ele>
        <time>2016-06-12T11:27:54Z</time>
      </trkpt>
      <trkpt lat="45.33846" lon="5.73885">
        <ele>1384.133643653</ele>
        <time>2016-06-12T11:27:59Z</time>
      </trkpt>
      <trkpt lat="45.33846" lon="5.73885">
        <ele>1384.133643653</ele>
        <time>2016-06-12T11:28:04Z</time>
      </trkpt>
      <trkpt lat="45.33846" lon="5.73885">
        <ele>1384.133643653</ele>
        <time>2016-06-12T11:28:14Z</time>
      </trkpt>
      <trkpt lat="45.33846" lon="5.73885">
        <ele>1384.133643653</ele>
        <time>2016-06-12T11:28:19Z</time>
      </trkpt>
      <trkpt lat="45.33846" lon="5.73885">
        <ele>1384.133643653</ele>
        <time>2016-06-12T11:28:29Z</time>
      </trkpt>
      <trkpt lat="45.33846" lon="5.73885">
        <ele>1384.133643653</ele>
        <time>2016-06-12T11:28:49Z</time>
      </trkpt>
      <trkpt lat="45.33845" lon="5.73881">
        <ele>1384.133643653</ele>
        <time>2016-06-12T11:29:12Z</time>
      </trkpt>
      <trkpt lat="45.33845" lon="5.7387">
        <ele>1387.807042688</ele>
        <time>2016-06-12T11:29:15Z</time>
      </trkpt>
      <trkpt lat="45.33848" lon="5.73862">
        <ele>1387.807042688</ele>
        <time>2016-06-12T11:29:19Z</time>
      </trkpt>
      <trkpt lat="45.3385" lon="5.73853">
        <ele>1390.928755403</ele>
        <time>2016-06-12T11:29:30Z</time>
      </trkpt>
      <trkpt lat="45.33851" lon="5.7385">
        <ele>1390.928755403</ele>
        <time>2016-06-12T11:29:34Z</time>
      </trkpt>
      <trkpt lat="45.33852" lon="5.73849">
        <ele>1390.928755403</ele>
        <time>2016-06-12T11:29:44Z</time>
      </trkpt>
      <trkpt lat="45.33852" lon="5.73849">
        <ele>1390.928755403</ele>
        <time>2016-06-12T11:29:49Z</time>
      </trkpt>
      <trkpt lat="45.33852" lon="5.73849">
        <ele>1390.928755403</ele>
        <time>2016-06-12T11:29:59Z</time>
      </trkpt>
      <trkpt lat="45.33852" lon="5.73849">
        <ele>1390.928755403</ele>
        <time>2016-06-12T11:30:05Z</time>
      </trkpt>
      <trkpt lat="45.33852" lon="5.73848">
        <ele>1390.928755403</ele>
        <time>2016-06-12T11:30:15Z</time>
      </trkpt>
      <trkpt lat="45.3385" lon="5.73832">
        <ele>1395.129675204</ele>
        <time>2016-06-12T11:30:20Z</time>
      </trkpt>
      <trkpt lat="45.33839" lon="5.7383">
        <ele>1399.323643131</ele>
        <time>2016-06-12T11:30:30Z</time>
      </trkpt>
      <trkpt lat="45.3384" lon="5.7383">
        <ele>1399.323643131</ele>
        <time>2016-06-12T11:30:35Z</time>
      </trkpt>
      <trkpt lat="45.33841" lon="5.73829">
        <ele>1399.323643131</ele>
        <time>2016-06-12T11:30:45Z</time>
      </trkpt>
      <trkpt lat="45.3384" lon="5.73829">
        <ele>1399.323643131</ele>
        <time>2016-06-12T11:30:49Z</time>
      </trkpt>
      <trkpt lat="45.3384" lon="5.73829">
        <ele>1399.323643131</ele>
        <time>2016-06-12T11:30:59Z</time>
      </trkpt>
      <trkpt lat="45.3384" lon="5.73829">
        <ele>1399.323643131</ele>
        <time>2016-06-12T11:31:05Z</time>
      </trkpt>
      <trkpt lat="45.3384" lon="5.73827">
        <ele>1399.323643131</ele>
        <time>2016-06-12T11:31:15Z</time>
      </trkpt>
      <trkpt lat="45.3384" lon="5.73829">
        <ele>1399.323643131</ele>
        <time>2016-06-12T11:31:19Z</time>
      </trkpt>
      <trkpt lat="45.33828" lon="5.73832">
        <ele>1403.801100244</ele>
        <time>2016-06-12T11:31:35Z</time>
      </trkpt>
      <trkpt lat="45.33827" lon="5.73837">
        <ele>1403.801100244</ele>
        <time>2016-06-12T11:31:39Z</time>
      </trkpt>
      <trkpt lat="45.33828" lon="5.73838">
        <ele>1403.801100244</ele>
        <time>2016-06-12T11:31:50Z</time>
      </trkpt>
      <trkpt lat="45.33829" lon="5.73839">
        <ele>1403.801100244</ele>
        <time>2016-06-12T11:31:54Z</time>
      </trkpt>
      <trkpt lat="45.33829" lon="5.73839">
        <ele>1403.801100244</ele>
        <time>2016-06-12T11:32:05Z</time>
      </trkpt>
      <trkpt lat="45.33829" lon="5.73839">
        <ele>1403.801100244</ele>
        <time>2016-06-12T11:32:10Z</time>
      </trkpt>
      <trkpt lat="45.33829" lon="5.73839">
        <ele>1403.801100244</ele>
        <time>2016-06-12T11:32:20Z</time>
      </trkpt>
      <trkpt lat="45.33829" lon="5.73839">
        <ele>1403.801100244</ele>
        <time>2016-06-12T11:32:25Z</time>
      </trkpt>
      <trkpt lat="45.33823" lon="5.73847">
        <ele>1409.118381547</ele>
        <time>2016-06-12T11:32:35Z</time>
      </trkpt>
      <trkpt lat="45.33813" lon="5.7385">
        <ele>1412.76207544</ele>
        <time>2016-06-12T11:32:40Z</time>
      </trkpt>
      <trkpt lat="45.33806" lon="5.73845">
        <ele>1412.76207544</ele>
        <time>2016-06-12T11:32:50Z</time>
      </trkpt>
      <trkpt lat="45.33803" lon="5.73848">
        <ele>1416.298928347</ele>
        <time>2016-06-12T11:32:55Z</time>
      </trkpt>
      <trkpt lat="45.33793" lon="5.7385">
        <ele>1420.171950282</ele>
        <time>2016-06-12T11:32:59Z</time>
      </trkpt>
      <trkpt lat="45.33795" lon="5.73852">
        <ele>1420.171950282</ele>
        <time>2016-06-12T11:33:04Z</time>
      </trkpt>
      <trkpt lat="45.33793" lon="5.73852">
        <ele>1420.171950282</ele>
        <time>2016-06-12T11:33:09Z</time>
      </trkpt>
      <trkpt lat="45.33792" lon="5.73852">
        <ele>1420.171950282</ele>
        <time>2016-06-12T11:33:19Z</time>
      </trkpt>
      <trkpt lat="45.3379" lon="5.73848">
        <ele>1420.171950282</ele>
        <time>2016-06-12T11:33:24Z</time>
      </trkpt>
      <trkpt lat="45.33786" lon="5.73829">
        <ele>1424.790508937</ele>
        <time>2016-06-12T11:33:34Z</time>
      </trkpt>
      <trkpt lat="45.33785" lon="5.73825">
        <ele>1424.790508937</ele>
        <time>2016-06-12T11:33:39Z</time>
      </trkpt>
      <trkpt lat="45.33778" lon="5.73818">
        <ele>1429.811105007</ele>
        <time>2016-06-12T11:33:49Z</time>
      </trkpt>
      <trkpt lat="45.33777" lon="5.7382">
        <ele>1429.811105007</ele>
        <time>2016-06-12T11:33:54Z</time>
      </trkpt>
      <trkpt lat="45.33777" lon="5.73821">
        <ele>1429.811105007</ele>
        <time>2016-06-12T11:34:04Z</time>
      </trkpt>
      <trkpt lat="45.33777" lon="5.73821">
        <ele>1429.811105007</ele>
        <time>2016-06-12T11:34:09Z</time>
      </trkpt>
      <trkpt lat="45.33775" lon="5.73802">
        <ele>1432.031978463</ele>
        <time>2016-06-12T11:34:24Z</time>
      </trkpt>
      <trkpt lat="45.33773" lon="5.73796">
        <ele>1432.031978463</ele>
        <time>2016-06-12T11:34:29Z</time>
      </trkpt>
      <trkpt lat="45.33773" lon="5.73794">
        <ele>1432.031978463</ele>
        <time>2016-06-12T11:34:39Z</time>
      </trkpt>
      <trkpt lat="45.33773" lon="5.73792">
        <ele>1432.031978463</ele>
        <time>2016-06-12T11:34:44Z</time>
      </trkpt>
      <trkpt lat="45.33774" lon="5.73779">
        <ele>1436.852744253</ele>
        <time>2016-06-12T11:34:49Z</time>
      </trkpt>
      <trkpt lat="45.33776" lon="5.73769">
        <ele>1436.852744253</ele>
        <time>2016-06-12T11:34:54Z</time>
      </trkpt>
      <trkpt lat="45.33774" lon="5.73756">
        <ele>1441.48694043</ele>
        <time>2016-06-12T11:34:59Z</time>
      </trkpt>
      <trkpt lat="45.33766" lon="5.73748">
        <ele>1445.803096707</ele>
        <time>2016-06-12T11:35:09Z</time>
      </trkpt>
      <trkpt lat="45.33769" lon="5.73747">
        <ele>1445.803096707</ele>
        <time>2016-06-12T11:35:14Z</time>
      </trkpt>
      <trkpt lat="45.33768" lon="5.73747">
        <ele>1445.803096707</ele>
        <time>2016-06-12T11:35:24Z</time>
      </trkpt>
      <trkpt lat="45.33768" lon="5.73746">
        <ele>1445.803096707</ele>
        <time>2016-06-12T11:35:29Z</time>
      </trkpt>
      <trkpt lat="45.33767" lon="5.73746">
        <ele>1445.803096707</ele>
        <time>2016-06-12T11:35:39Z</time>
      </trkpt>
      <trkpt lat="45.33767" lon="5.73746">
        <ele>1445.803096707</ele>
        <time>2016-06-12T11:35:44Z</time>
      </trkpt>
      <trkpt lat="45.33767" lon="5.73729">
        <ele>1449.968407983</ele>
        <time>2016-06-12T11:35:54Z</time>
      </trkpt>
      <trkpt lat="45.33763" lon="5.73718">
        <ele>1449.968407983</ele>
        <time>2016-06-12T11:35:59Z</time>
      </trkpt>
      <trkpt lat="45.33761" lon="5.73713">
        <ele>1454.138112913</ele>
        <time>2016-06-12T11:36:04Z</time>
      </trkpt>
      <trkpt lat="45.33761" lon="5.73708">
        <ele>1454.138112913</ele>
        <time>2016-06-12T11:36:09Z</time>
      </trkpt>
      <trkpt lat="45.33745" lon="5.73703">
        <ele>1458.167722258</ele>
        <time>2016-06-12T11:36:24Z</time>
      </trkpt>
      <trkpt lat="45.33741" lon="5.73694">
        <ele>1458.167722258</ele>
        <time>2016-06-12T11:36:29Z</time>
      </trkpt>
      <trkpt lat="45.33741" lon="5.73671">
        <ele>1462.932451097</ele>
        <time>2016-06-12T11:36:39Z</time>
      </trkpt>
      <trkpt lat="45.33741" lon="5.73663">
        <ele>1462.932451097</ele>
        <time>2016-06-12T11:36:44Z</time>
      </trkpt>
      <trkpt lat="45.33744" lon="5.73653">
        <ele>1467.944085691</ele>
        <time>2016-06-12T11:36:54Z</time>
      </trkpt>
      <trkpt lat="45.33747" lon="5.73648">
        <ele>1467.944085691</ele>
        <time>2016-06-12T11:36:59Z</time>
      </trkpt>
      <trkpt lat="45.3375" lon="5.73644">
        <ele>1467.944085691</ele>
        <time>2016-06-12T11:37:09Z</time>
      </trkpt>
      <trkpt lat="45.3375" lon="5.73642">
        <ele>1472.317185855</ele>
        <time>2016-06-12T11:37:14Z</time>
      </trkpt>
      <trkpt lat="45.33749" lon="5.73627">
        <ele>1476.241869293</ele>
        <time>2016-06-12T11:37:24Z</time>
      </trkpt>
      <trkpt lat="45.33751" lon="5.73616">
        <ele>1476.241869293</ele>
        <time>2016-06-12T11:37:29Z</time>
      </trkpt>
      <trkpt lat="45.33756" lon="5.73611">
        <ele>1479.174939524</ele>
        <time>2016-06-12T11:37:39Z</time>
      </trkpt>
      <trkpt lat="45.33757" lon="5.7361">
        <ele>1479.174939524</ele>
        <time>2016-06-12T11:37:44Z</time>
      </trkpt>
      <trkpt lat="45.33756" lon="5.73608">
        <ele>1479.174939524</ele>
        <time>2016-06-12T11:37:49Z</time>
      </trkpt>
      <trkpt lat="45.33756" lon="5.73607">
        <ele>1479.174939524</ele>
        <time>2016-06-12T11:37:59Z</time>
      </trkpt>
      <trkpt lat="45.33759" lon="5.73612">
        <ele>1479.174939524</ele>
        <time>2016-06-12T11:38:04Z</time>
      </trkpt>
      <trkpt lat="45.33766" lon="5.73607">
        <ele>1482.34517157</ele>
        <time>2016-06-12T11:38:14Z</time>
      </trkpt>
      <trkpt lat="45.33773" lon="5.73599">
        <ele>1482.34517157</ele>
        <time>2016-06-12T11:38:19Z</time>
      </trkpt>
      <trkpt lat="45.33773" lon="5.7359">
        <ele>1484.728692222</ele>
        <time>2016-06-12T11:38:29Z</time>
      </trkpt>
      <trkpt lat="45.33773" lon="5.73586">
        <ele>1484.728692222</ele>
        <time>2016-06-12T11:38:34Z</time>
      </trkpt>
      <trkpt lat="45.33775" lon="5.73585">
        <ele>1484.728692222</ele>
        <time>2016-06-12T11:38:44Z</time>
      </trkpt>
      <trkpt lat="45.33779" lon="5.73579">
        <ele>1487.108327747</ele>
        <time>2016-06-12T11:38:49Z</time>
      </trkpt>
      <trkpt lat="45.33785" lon="5.73573">
        <ele>1487.108327747</ele>
        <time>2016-06-12T11:38:59Z</time>
      </trkpt>
      <trkpt lat="45.33784" lon="5.73569">
        <ele>1489.488791343</ele>
        <time>2016-06-12T11:39:04Z</time>
      </trkpt>
      <trkpt lat="45.33789" lon="5.73551">
        <ele>1491.297932346</ele>
        <time>2016-06-12T11:39:19Z</time>
      </trkpt>
      <trkpt lat="45.3379" lon="5.73549">
        <ele>1491.297932346</ele>
        <time>2016-06-12T11:39:24Z</time>
      </trkpt>
      <trkpt lat="45.33792" lon="5.73535">
        <ele>1492.727707796</ele>
        <time>2016-06-12T11:39:34Z</time>
      </trkpt>
      <trkpt lat="45.33792" lon="5.73535">
        <ele>1492.727707796</ele>
        <time>2016-06-12T11:39:39Z</time>
      </trkpt>
      <trkpt lat="45.33792" lon="5.73535">
        <ele>1492.727707796</ele>
        <time>2016-06-12T11:39:44Z</time>
      </trkpt>
      <trkpt lat="45.33792" lon="5.73527">
        <ele>1492.727707796</ele>
        <time>2016-06-12T11:39:54Z</time>
      </trkpt>
      <trkpt lat="45.33793" lon="5.73523">
        <ele>1494.677502996</ele>
        <time>2016-06-12T11:39:59Z</time>
      </trkpt>
      <trkpt lat="45.33793" lon="5.73515">
        <ele>1494.677502996</ele>
        <time>2016-06-12T11:40:09Z</time>
      </trkpt>
      <trkpt lat="45.33791" lon="5.73512">
        <ele>1494.677502996</ele>
        <time>2016-06-12T11:40:14Z</time>
      </trkpt>
      <trkpt lat="45.3379" lon="5.73503">
        <ele>1497.258520373</ele>
        <time>2016-06-12T11:40:24Z</time>
      </trkpt>
      <trkpt lat="45.33791" lon="5.73501">
        <ele>1497.258520373</ele>
        <time>2016-06-12T11:40:29Z</time>
      </trkpt>
      <trkpt lat="45.33793" lon="5.73491">
        <ele>1500.283693629</ele>
        <time>2016-06-12T11:40:44Z</time>
      </trkpt>
      <trkpt lat="45.33793" lon="5.73486">
        <ele>1500.283693629</ele>
        <time>2016-06-12T11:40:49Z</time>
      </trkpt>
      <trkpt lat="45.33788" lon="5.73469">
        <ele>1503.146008079</ele>
        <time>2016-06-12T11:40:59Z</time>
      </trkpt>
      <trkpt lat="45.33792" lon="5.73463">
        <ele>1503.146008079</ele>
        <time>2016-06-12T11:41:04Z</time>
      </trkpt>
      <trkpt lat="45.33793" lon="5.73452">
        <ele>1506.148052815</ele>
        <time>2016-06-12T11:41:14Z</time>
      </trkpt>
      <trkpt lat="45.33794" lon="5.7345">
        <ele>1506.148052815</ele>
        <time>2016-06-12T11:41:19Z</time>
      </trkpt>
      <trkpt lat="45.33794" lon="5.7345">
        <ele>1506.148052815</ele>
        <time>2016-06-12T11:41:24Z</time>
      </trkpt>
      <trkpt lat="45.33794" lon="5.7345">
        <ele>1506.148052815</ele>
        <time>2016-06-12T11:41:29Z</time>
      </trkpt>
      <trkpt lat="45.33793" lon="5.7345">
        <ele>1506.148052815</ele>
        <time>2016-06-12T11:41:34Z</time>
      </trkpt>
      <trkpt lat="45.33796" lon="5.73447">
        <ele>1506.148052815</ele>
        <time>2016-06-12T11:41:44Z</time>
      </trkpt>
      <trkpt lat="45.33796" lon="5.7344">
        <ele>1508.993242474</ele>
        <time>2016-06-12T11:41:49Z</time>
      </trkpt>
      <trkpt lat="45.33797" lon="5.73435">
        <ele>1508.993242474</ele>
        <time>2016-06-12T11:41:59Z</time>
      </trkpt>
      <trkpt lat="45.33799" lon="5.73425">
        <ele>1510.254218716</ele>
        <time>2016-06-12T11:42:04Z</time>
      </trkpt>
      <trkpt lat="45.338" lon="5.73418">
        <ele>1510.254218716</ele>
        <time>2016-06-12T11:42:14Z</time>
      </trkpt>
      <trkpt lat="45.338" lon="5.73415">
        <ele>1510.254218716</ele>
        <time>2016-06-12T11:42:19Z</time>
      </trkpt>
      <trkpt lat="45.33803" lon="5.73403">
        <ele>1512.07147581</ele>
        <time>2016-06-12T11:42:29Z</time>
      </trkpt>
      <trkpt lat="45.33804" lon="5.73399">
        <ele>1512.07147581</ele>
        <time>2016-06-12T11:42:34Z</time>
      </trkpt>
      <trkpt lat="45.33798" lon="5.73393">
        <ele>1513.112033237</ele>
        <time>2016-06-12T11:42:44Z</time>
      </trkpt>
      <trkpt lat="45.33798" lon="5.73388">
        <ele>1513.112033237</ele>
        <time>2016-06-12T11:42:49Z</time>
      </trkpt>
      <trkpt lat="45.33811" lon="5.7337">
        <ele>1514.592774117</ele>
        <time>2016-06-12T11:42:59Z</time>
      </trkpt>
      <trkpt lat="45.33812" lon="5.73363">
        <ele>1514.592774117</ele>
        <time>2016-06-12T11:43:04Z</time>
      </trkpt>
      <trkpt lat="45.33818" lon="5.73354">
        <ele>1516.342821859</ele>
        <time>2016-06-12T11:43:14Z</time>
      </trkpt>
      <trkpt lat="45.33818" lon="5.73349">
        <ele>1516.342821859</ele>
        <time>2016-06-12T11:43:19Z</time>
      </trkpt>
      <trkpt lat="45.33817" lon="5.73349">
        <ele>1516.342821859</ele>
        <time>2016-06-12T11:43:24Z</time>
      </trkpt>
      <trkpt lat="45.33819" lon="5.73347">
        <ele>1516.342821859</ele>
        <time>2016-06-12T11:43:34Z</time>
      </trkpt>
      <trkpt lat="45.33817" lon="5.73345">
        <ele>1517.482400821</ele>
        <time>2016-06-12T11:43:39Z</time>
      </trkpt>
      <trkpt lat="45.33819" lon="5.73342">
        <ele>1517.482400821</ele>
        <time>2016-06-12T11:43:49Z</time>
      </trkpt>
      <trkpt lat="45.33819" lon="5.73342">
        <ele>1517.482400821</ele>
        <time>2016-06-12T11:43:54Z</time>
      </trkpt>
      <trkpt lat="45.33817" lon="5.73332">
        <ele>1518.350817526</ele>
        <time>2016-06-12T11:44:04Z</time>
      </trkpt>
      <trkpt lat="45.33818" lon="5.73331">
        <ele>1518.350817526</ele>
        <time>2016-06-12T11:44:09Z</time>
      </trkpt>
      <trkpt lat="45.33829" lon="5.73306">
        <ele>1520.415951038</ele>
        <time>2016-06-12T11:44:24Z</time>
      </trkpt>
      <trkpt lat="45.3383" lon="5.73305">
        <ele>1520.415951038</ele>
        <time>2016-06-12T11:44:29Z</time>
      </trkpt>
      <trkpt lat="45.33834" lon="5.73296">
        <ele>1522.152113896</ele>
        <time>2016-06-12T11:44:39Z</time>
      </trkpt>
      <trkpt lat="45.33833" lon="5.73288">
        <ele>1522.152113896</ele>
        <time>2016-06-12T11:44:44Z</time>
      </trkpt>
      <trkpt lat="45.33835" lon="5.73283">
        <ele>1523.587569448</ele>
        <time>2016-06-12T11:44:54Z</time>
      </trkpt>
      <trkpt lat="45.33839" lon="5.73276">
        <ele>1523.587569448</ele>
        <time>2016-06-12T11:44:59Z</time>
      </trkpt>
      <trkpt lat="45.33839" lon="5.73272">
        <ele>1524.460963602</ele>
        <time>2016-06-12T11:45:04Z</time>
      </trkpt>
      <trkpt lat="45.33839" lon="5.73272">
        <ele>1524.460963602</ele>
        <time>2016-06-12T11:45:09Z</time>
      </trkpt>
      <trkpt lat="45.33839" lon="5.73272">
        <ele>1524.460963602</ele>
        <time>2016-06-12T11:45:14Z</time>
      </trkpt>
      <trkpt lat="45.33839" lon="5.73271">
        <ele>1524.460963602</ele>
        <time>2016-06-12T11:45:19Z</time>
      </trkpt>
      <trkpt lat="45.33839" lon="5.73271">
        <ele>1524.460963602</ele>
        <time>2016-06-12T11:45:24Z</time>
      </trkpt>
      <trkpt lat="45.33839" lon="5.73271">
        <ele>1524.460963602</ele>
        <time>2016-06-12T11:45:34Z</time>
      </trkpt>
      <trkpt lat="45.33839" lon="5.73271">
        <ele>1524.460963602</ele>
        <time>2016-06-12T11:45:39Z</time>
      </trkpt>
      <trkpt lat="45.33839" lon="5.73271">
        <ele>1524.460963602</ele>
        <time>2016-06-12T11:45:49Z</time>
      </trkpt>
      <trkpt lat="45.33839" lon="5.73271">
        <ele>1524.460963602</ele>
        <time>2016-06-12T11:45:54Z</time>
      </trkpt>
      <trkpt lat="45.33839" lon="5.73271">
        <ele>1524.460963602</ele>
        <time>2016-06-12T11:46:04Z</time>
      </trkpt>
      <trkpt lat="45.33839" lon="5.73271">
        <ele>1524.460963602</ele>
        <time>2016-06-12T11:46:09Z</time>
      </trkpt>
      <trkpt lat="45.33839" lon="5.73271">
        <ele>1524.460963602</ele>
        <time>2016-06-12T11:46:19Z</time>
      </trkpt>
      <trkpt lat="45.33837" lon="5.73269">
        <ele>1524.460963602</ele>
        <time>2016-06-12T11:46:24Z</time>
      </trkpt>
      <trkpt lat="45.3384" lon="5.73261">
        <ele>1524.531551716</ele>
        <time>2016-06-12T11:46:34Z</time>
      </trkpt>
      <trkpt lat="45.33845" lon="5.73256">
        <ele>1524.531551716</ele>
        <time>2016-06-12T11:46:39Z</time>
      </trkpt>
      <trkpt lat="45.33845" lon="5.73254">
        <ele>1524.531551716</ele>
        <time>2016-06-12T11:46:49Z</time>
      </trkpt>
      <trkpt lat="45.33846" lon="5.73254">
        <ele>1525.30768902</ele>
        <time>2016-06-12T11:46:54Z</time>
      </trkpt>
      <trkpt lat="45.33851" lon="5.73238">
        <ele>1526.167214802</ele>
        <time>2016-06-12T11:47:09Z</time>
      </trkpt>
      <trkpt lat="45.33854" lon="5.73235">
        <ele>1526.167214802</ele>
        <time>2016-06-12T11:47:14Z</time>
      </trkpt>
      <trkpt lat="45.33857" lon="5.73229">
        <ele>1526.167214802</ele>
        <time>2016-06-12T11:47:24Z</time>
      </trkpt>
      <trkpt lat="45.33856" lon="5.73228">
        <ele>1526.965587975</ele>
        <time>2016-06-12T11:47:29Z</time>
      </trkpt>
      <trkpt lat="45.3386" lon="5.73214">
        <ele>1527.857091221</ele>
        <time>2016-06-12T11:47:39Z</time>
      </trkpt>
      <trkpt lat="45.33866" lon="5.73206">
        <ele>1527.857091221</ele>
        <time>2016-06-12T11:47:44Z</time>
      </trkpt>
      <trkpt lat="45.33874" lon="5.73194">
        <ele>1528.551888112</ele>
        <time>2016-06-12T11:47:54Z</time>
      </trkpt>
      <trkpt lat="45.3388" lon="5.73187">
        <ele>1528.551888112</ele>
        <time>2016-06-12T11:47:59Z</time>
      </trkpt>
      <trkpt lat="45.33887" lon="5.73181">
        <ele>1529.790571445</ele>
        <time>2016-06-12T11:48:09Z</time>
      </trkpt>
      <trkpt lat="45.33888" lon="5.73179">
        <ele>1529.790571445</ele>
        <time>2016-06-12T11:48:14Z</time>
      </trkpt>
      <trkpt lat="45.33888" lon="5.73178">
        <ele>1529.790571445</ele>
        <time>2016-06-12T11:48:24Z</time>
      </trkpt>
      <trkpt lat="45.33888" lon="5.73178">
        <ele>1529.790571445</ele>
        <time>2016-06-12T11:48:29Z</time>
      </trkpt>
      <trkpt lat="45.33888" lon="5.73171">
        <ele>1529.790571445</ele>
        <time>2016-06-12T11:48:39Z</time>
      </trkpt>
      <trkpt lat="45.33888" lon="5.73169">
        <ele>1531.104723474</ele>
        <time>2016-06-12T11:48:44Z</time>
      </trkpt>
      <trkpt lat="45.33889" lon="5.73156">
        <ele>1531.771710655</ele>
        <time>2016-06-12T11:48:54Z</time>
      </trkpt>
      <trkpt lat="45.33891" lon="5.73153">
        <ele>1531.771710655</ele>
        <time>2016-06-12T11:48:59Z</time>
      </trkpt>
      <trkpt lat="45.33902" lon="5.73137">
        <ele>1532.27649792</ele>
        <time>2016-06-12T11:49:09Z</time>
      </trkpt>
      <trkpt lat="45.33894" lon="5.73133">
        <ele>1532.27649792</ele>
        <time>2016-06-12T11:49:14Z</time>
      </trkpt>
      <trkpt lat="45.33877" lon="5.73117">
        <ele>1532.492244899</ele>
        <time>2016-06-12T11:49:24Z</time>
      </trkpt>
      <trkpt lat="45.3386" lon="5.73113">
        <ele>1532.878493093</ele>
        <time>2016-06-12T11:49:29Z</time>
      </trkpt>
      <trkpt lat="45.33843" lon="5.73096">
        <ele>1532.851576097</ele>
        <time>2016-06-12T11:49:39Z</time>
      </trkpt>
      <trkpt lat="45.33836" lon="5.73092">
        <ele>1532.851576097</ele>
        <time>2016-06-12T11:49:44Z</time>
      </trkpt>
      <trkpt lat="45.33818" lon="5.73061">
        <ele>1533.024555552</ele>
        <time>2016-06-12T11:49:59Z</time>
      </trkpt>
      <trkpt lat="45.33814" lon="5.73051">
        <ele>1533.024555552</ele>
        <time>2016-06-12T11:50:04Z</time>
      </trkpt>
      <trkpt lat="45.33803" lon="5.73024">
        <ele>1533.24414304</ele>
        <time>2016-06-12T11:50:14Z</time>
      </trkpt>
      <trkpt lat="45.33799" lon="5.73014">
        <ele>1533.24414304</ele>
        <time>2016-06-12T11:50:19Z</time>
      </trkpt>
      <trkpt lat="45.33789" lon="5.73001">
        <ele>1533.944425569</ele>
        <time>2016-06-12T11:50:29Z</time>
      </trkpt>
      <trkpt lat="45.33785" lon="5.72987">
        <ele>1533.796719968</ele>
        <time>2016-06-12T11:50:34Z</time>
      </trkpt>
      <trkpt lat="45.33775" lon="5.7297">
        <ele>1533.733793966</ele>
        <time>2016-06-12T11:50:44Z</time>
      </trkpt>
      <trkpt lat="45.3377" lon="5.72961">
        <ele>1533.733793966</ele>
        <time>2016-06-12T11:50:49Z</time>
      </trkpt>
      <trkpt lat="45.33762" lon="5.7295">
        <ele>1533.754790363</ele>
        <time>2016-06-12T11:50:59Z</time>
      </trkpt>
      <trkpt lat="45.33764" lon="5.72949">
        <ele>1533.754790363</ele>
        <time>2016-06-12T11:51:04Z</time>
      </trkpt>
      <trkpt lat="45.33763" lon="5.72948">
        <ele>1533.754790363</ele>
        <time>2016-06-12T11:51:09Z</time>
      </trkpt>
      <trkpt lat="45.33762" lon="5.72943">
        <ele>1533.754790363</ele>
        <time>2016-06-12T11:51:14Z</time>
      </trkpt>
      <trkpt lat="45.33771" lon="5.72932">
        <ele>1532.705588871</ele>
        <time>2016-06-12T11:51:24Z</time>
      </trkpt>
      <trkpt lat="45.33782" lon="5.72917">
        <ele>1531.681315418</ele>
        <time>2016-06-12T11:51:29Z</time>
      </trkpt>
      <trkpt lat="45.3381" lon="5.72895">
        <ele>1530.399368965</ele>
        <time>2016-06-12T11:51:44Z</time>
      </trkpt>
      <trkpt lat="45.33815" lon="5.72899">
        <ele>1530.399368965</ele>
        <time>2016-06-12T11:51:49Z</time>
      </trkpt>
      <trkpt lat="45.33826" lon="5.7288">
        <ele>1528.742526297</ele>
        <time>2016-06-12T11:51:59Z</time>
      </trkpt>
      <trkpt lat="45.33835" lon="5.72875">
        <ele>1527.46767087</ele>
        <time>2016-06-12T11:52:04Z</time>
      </trkpt>
      <trkpt lat="45.33851" lon="5.72868">
        <ele>1526.26600632</ele>
        <time>2016-06-12T11:52:14Z</time>
      </trkpt>
      <trkpt lat="45.33863" lon="5.7287">
        <ele>1525.427424743</ele>
        <time>2016-06-12T11:52:19Z</time>
      </trkpt>
      <trkpt lat="45.33876" lon="5.7286">
        <ele>1525.363378941</ele>
        <time>2016-06-12T11:52:29Z</time>
      </trkpt>
      <trkpt lat="45.3388" lon="5.72854">
        <ele>1525.363378941</ele>
        <time>2016-06-12T11:52:34Z</time>
      </trkpt>
      <trkpt lat="45.33885" lon="5.72834">
        <ele>1525.299799487</ele>
        <time>2016-06-12T11:52:44Z</time>
      </trkpt>
      <trkpt lat="45.3389" lon="5.72836">
        <ele>1525.299799487</ele>
        <time>2016-06-12T11:52:49Z</time>
      </trkpt>
      <trkpt lat="45.33889" lon="5.72839">
        <ele>1525.299799487</ele>
        <time>2016-06-12T11:52:54Z</time>
      </trkpt>
      <trkpt lat="45.33889" lon="5.7284">
        <ele>1525.299799487</ele>
        <time>2016-06-12T11:52:59Z</time>
      </trkpt>
      <trkpt lat="45.33889" lon="5.72841">
        <ele>1526.104472257</ele>
        <time>2016-06-12T11:53:04Z</time>
      </trkpt>
      <trkpt lat="45.33889" lon="5.72841">
        <ele>1526.104472257</ele>
        <time>2016-06-12T11:53:09Z</time>
      </trkpt>
      <trkpt lat="45.33907" lon="5.72825">
        <ele>1526.561224068</ele>
        <time>2016-06-12T11:53:19Z</time>
      </trkpt>
      <trkpt lat="45.33914" lon="5.72812">
        <ele>1527.273322875</ele>
        <time>2016-06-12T11:53:24Z</time>
      </trkpt>
      <trkpt lat="45.33932" lon="5.72789">
        <ele>1528.654699173</ele>
        <time>2016-06-12T11:53:39Z</time>
      </trkpt>
      <trkpt lat="45.33939" lon="5.72778">
        <ele>1530.510376159</ele>
        <time>2016-06-12T11:53:44Z</time>
      </trkpt>
      <trkpt lat="45.33943" lon="5.72767">
        <ele>1530.510376159</ele>
        <time>2016-06-12T11:53:54Z</time>
      </trkpt>
      <trkpt lat="45.33951" lon="5.72764">
        <ele>1531.937652353</ele>
        <time>2016-06-12T11:53:59Z</time>
      </trkpt>
      <trkpt lat="45.33961" lon="5.72748">
        <ele>1534.26286601</ele>
        <time>2016-06-12T11:54:09Z</time>
      </trkpt>
      <trkpt lat="45.33967" lon="5.72745">
        <ele>1534.26286601</ele>
        <time>2016-06-12T11:54:14Z</time>
      </trkpt>
      <trkpt lat="45.33977" lon="5.72733">
        <ele>1536.694727549</ele>
        <time>2016-06-12T11:54:24Z</time>
      </trkpt>
      <trkpt lat="45.33985" lon="5.72725">
        <ele>1536.694727549</ele>
        <time>2016-06-12T11:54:29Z</time>
      </trkpt>
      <trkpt lat="45.33994" lon="5.72713">
        <ele>1539.940789996</ele>
        <time>2016-06-12T11:54:39Z</time>
      </trkpt>
      <trkpt lat="45.34001" lon="5.72713">
        <ele>1539.940789996</ele>
        <time>2016-06-12T11:54:44Z</time>
      </trkpt>
      <trkpt lat="45.34019" lon="5.72713">
        <ele>1543.933717804</ele>
        <time>2016-06-12T11:54:54Z</time>
      </trkpt>
      <trkpt lat="45.34032" lon="5.7271">
        <ele>1547.600203407</ele>
        <time>2016-06-12T11:54:59Z</time>
      </trkpt>
      <trkpt lat="45.34041" lon="5.7271">
        <ele>1551.964240068</ele>
        <time>2016-06-12T11:55:09Z</time>
      </trkpt>
      <trkpt lat="45.34047" lon="5.72705">
        <ele>1551.964240068</ele>
        <time>2016-06-12T11:55:14Z</time>
      </trkpt>
      <trkpt lat="45.34066" lon="5.72695">
        <ele>1555.955099435</ele>
        <time>2016-06-12T11:55:24Z</time>
      </trkpt>
      <trkpt lat="45.34074" lon="5.72694">
        <ele>1555.955099435</ele>
        <time>2016-06-12T11:55:29Z</time>
      </trkpt>
      <trkpt lat="45.34079" lon="5.72687">
        <ele>1559.590574476</ele>
        <time>2016-06-12T11:55:44Z</time>
      </trkpt>
      <trkpt lat="45.34079" lon="5.72687">
        <ele>1559.590574476</ele>
        <time>2016-06-12T11:55:49Z</time>
      </trkpt>
      <trkpt lat="45.34087" lon="5.72674">
        <ele>1562.744102445</ele>
        <time>2016-06-12T11:55:59Z</time>
      </trkpt>
      <trkpt lat="45.34093" lon="5.72669">
        <ele>1562.744102445</ele>
        <time>2016-06-12T11:56:04Z</time>
      </trkpt>
      <trkpt lat="45.34111" lon="5.7265">
        <ele>1566.308635366</ele>
        <time>2016-06-12T11:56:14Z</time>
      </trkpt>
      <trkpt lat="45.34119" lon="5.72648">
        <ele>1566.308635366</ele>
        <time>2016-06-12T11:56:19Z</time>
      </trkpt>
      <trkpt lat="45.34138" lon="5.72645">
        <ele>1569.381147311</ele>
        <time>2016-06-12T11:56:29Z</time>
      </trkpt>
      <trkpt lat="45.34144" lon="5.72636">
        <ele>1571.847002403</ele>
        <time>2016-06-12T11:56:34Z</time>
      </trkpt>
      <trkpt lat="45.34167" lon="5.72622">
        <ele>1574.178260716</ele>
        <time>2016-06-12T11:56:44Z</time>
      </trkpt>
      <trkpt lat="45.34174" lon="5.72618">
        <ele>1574.178260716</ele>
        <time>2016-06-12T11:56:49Z</time>
      </trkpt>
      <trkpt lat="45.34178" lon="5.72624">
        <ele>1576.524595842</ele>
        <time>2016-06-12T11:56:54Z</time>
      </trkpt>
      <trkpt lat="45.34183" lon="5.7263">
        <ele>1576.524595842</ele>
        <time>2016-06-12T11:56:59Z</time>
      </trkpt>
      <trkpt lat="45.34195" lon="5.72607">
        <ele>1578.448338339</ele>
        <time>2016-06-12T11:57:09Z</time>
      </trkpt>
      <trkpt lat="45.3421" lon="5.726">
        <ele>1580.265850747</ele>
        <time>2016-06-12T11:57:14Z</time>
      </trkpt>
      <trkpt lat="45.34218" lon="5.72598">
        <ele>1580.265850747</ele>
        <time>2016-06-12T11:57:24Z</time>
      </trkpt>
      <trkpt lat="45.34221" lon="5.72596">
        <ele>1582.12658163</ele>
        <time>2016-06-12T11:57:29Z</time>
      </trkpt>
      <trkpt lat="45.34244" lon="5.72585">
        <ele>1583.304348642</ele>
        <time>2016-06-12T11:57:44Z</time>
      </trkpt>
      <trkpt lat="45.34263" lon="5.72572">
        <ele>1583.993027121</ele>
        <time>2016-06-12T11:57:49Z</time>
      </trkpt>
      <trkpt lat="45.34272" lon="5.72561">
        <ele>1585.094300924</ele>
        <time>2016-06-12T11:57:59Z</time>
      </trkpt>
      <trkpt lat="45.3428" lon="5.72552">
        <ele>1586.14557251</ele>
        <time>2016-06-12T11:58:04Z</time>
      </trkpt>
      <trkpt lat="45.34283" lon="5.72546">
        <ele>1586.14557251</ele>
        <time>2016-06-12T11:58:14Z</time>
      </trkpt>
      <trkpt lat="45.34287" lon="5.72544">
        <ele>1587.72724988</ele>
        <time>2016-06-12T11:58:19Z</time>
      </trkpt>
      <trkpt lat="45.34295" lon="5.72533">
        <ele>1588.79049025</ele>
        <time>2016-06-12T11:58:29Z</time>
      </trkpt>
      <trkpt lat="45.34299" lon="5.72525">
        <ele>1588.79049025</ele>
        <time>2016-06-12T11:58:34Z</time>
      </trkpt>
      <trkpt lat="45.34313" lon="5.72521">
        <ele>1589.806153254</ele>
        <time>2016-06-12T11:58:44Z</time>
      </trkpt>
      <trkpt lat="45.3432" lon="5.72513">
        <ele>1591.066613938</ele>
        <time>2016-06-12T11:58:49Z</time>
      </trkpt>
      <trkpt lat="45.34326" lon="5.72502">
        <ele>1592.265713688</ele>
        <time>2016-06-12T11:59:04Z</time>
      </trkpt>
      <trkpt lat="45.34325" lon="5.725">
        <ele>1592.265713688</ele>
        <time>2016-06-12T11:59:09Z</time>
      </trkpt>
      <trkpt lat="45.34325" lon="5.725">
        <ele>1592.265713688</ele>
        <time>2016-06-12T11:59:19Z</time>
      </trkpt>
      <trkpt lat="45.34325" lon="5.725">
        <ele>1592.265713688</ele>
        <time>2016-06-12T11:59:24Z</time>
      </trkpt>
      <trkpt lat="45.34336" lon="5.72476">
        <ele>1594.849361265</ele>
        <time>2016-06-12T11:59:34Z</time>
      </trkpt>
      <trkpt lat="45.34353" lon="5.72466">
        <ele>1597.415322412</ele>
        <time>2016-06-12T11:59:39Z</time>
      </trkpt>
      <trkpt lat="45.34365" lon="5.72461">
        <ele>1600.105601305</ele>
        <time>2016-06-12T11:59:49Z</time>
      </trkpt>
      <trkpt lat="45.34367" lon="5.72456">
        <ele>1600.105601305</ele>
        <time>2016-06-12T11:59:54Z</time>
      </trkpt>
      <trkpt lat="45.34369" lon="5.7245">
        <ele>1600.105601305</ele>
        <time>2016-06-12T12:00:04Z</time>
      </trkpt>
      <trkpt lat="45.34371" lon="5.7245">
        <ele>1603.483829919</ele>
        <time>2016-06-12T12:00:09Z</time>
      </trkpt>
      <trkpt lat="45.34386" lon="5.72451">
        <ele>1606.917498777</ele>
        <time>2016-06-12T12:00:19Z</time>
      </trkpt>
      <trkpt lat="45.34387" lon="5.72457">
        <ele>1606.917498777</ele>
        <time>2016-06-12T12:00:24Z</time>
      </trkpt>
      <trkpt lat="45.34398" lon="5.72452">
        <ele>1610.541052861</ele>
        <time>2016-06-12T12:00:34Z</time>
      </trkpt>
      <trkpt lat="45.34406" lon="5.72451">
        <ele>1610.541052861</ele>
        <time>2016-06-12T12:00:39Z</time>
      </trkpt>
      <trkpt lat="45.34422" lon="5.72444">
        <ele>1613.469848717</ele>
        <time>2016-06-12T12:00:54Z</time>
      </trkpt>
      <trkpt lat="45.34426" lon="5.72442">
        <ele>1613.469848717</ele>
        <time>2016-06-12T12:00:59Z</time>
      </trkpt>
      <trkpt lat="45.34434" lon="5.72437">
        <ele>1616.759729608</ele>
        <time>2016-06-12T12:01:09Z</time>
      </trkpt>
      <trkpt lat="45.34433" lon="5.72436">
        <ele>1616.759729608</ele>
        <time>2016-06-12T12:01:14Z</time>
      </trkpt>
      <trkpt lat="45.34438" lon="5.72435">
        <ele>1616.759729608</ele>
        <time>2016-06-12T12:01:24Z</time>
      </trkpt>
      <trkpt lat="45.3445" lon="5.72433">
        <ele>1619.514632314</ele>
        <time>2016-06-12T12:01:29Z</time>
      </trkpt>
      <trkpt lat="45.34466" lon="5.72415">
        <ele>1621.770602246</ele>
        <time>2016-06-12T12:01:39Z</time>
      </trkpt>
      <trkpt lat="45.34469" lon="5.72404">
        <ele>1621.770602246</ele>
        <time>2016-06-12T12:01:44Z</time>
      </trkpt>
      <trkpt lat="45.34476" lon="5.72381">
        <ele>1625.147778679</ele>
        <time>2016-06-12T12:01:54Z</time>
      </trkpt>
      <trkpt lat="45.34481" lon="5.7237">
        <ele>1628.694372823</ele>
        <time>2016-06-12T12:01:59Z</time>
      </trkpt>
      <trkpt lat="45.34482" lon="5.72364">
        <ele>1628.694372823</ele>
        <time>2016-06-12T12:02:09Z</time>
      </trkpt>
      <trkpt lat="45.34481" lon="5.72363">
        <ele>1628.694372823</ele>
        <time>2016-06-12T12:02:14Z</time>
      </trkpt>
      <trkpt lat="45.34481" lon="5.72363">
        <ele>1628.694372823</ele>
        <time>2016-06-12T12:02:19Z</time>
      </trkpt>
      <trkpt lat="45.34485" lon="5.72364">
        <ele>1628.694372823</ele>
        <time>2016-06-12T12:02:29Z</time>
      </trkpt>
      <trkpt lat="45.34485" lon="5.7236">
        <ele>1633.257498359</ele>
        <time>2016-06-12T12:02:34Z</time>
      </trkpt>
      <trkpt lat="45.34483" lon="5.72356">
        <ele>1633.257498359</ele>
        <time>2016-06-12T12:02:49Z</time>
      </trkpt>
      <trkpt lat="45.34483" lon="5.72355">
        <ele>1633.257498359</ele>
        <time>2016-06-12T12:02:54Z</time>
      </trkpt>
      <trkpt lat="45.34483" lon="5.72355">
        <ele>1633.257498359</ele>
        <time>2016-06-12T12:03:04Z</time>
      </trkpt>
      <trkpt lat="45.34483" lon="5.72355">
        <ele>1633.257498359</ele>
        <time>2016-06-12T12:03:09Z</time>
      </trkpt>
      <trkpt lat="45.34485" lon="5.72344">
        <ele>1637.457653494</ele>
        <time>2016-06-12T12:03:19Z</time>
      </trkpt>
      <trkpt lat="45.34484" lon="5.72336">
        <ele>1637.457653494</ele>
        <time>2016-06-12T12:03:24Z</time>
      </trkpt>
      <trkpt lat="45.34488" lon="5.72328">
        <ele>1641.603055819</ele>
        <time>2016-06-12T12:03:34Z</time>
      </trkpt>
      <trkpt lat="45.34492" lon="5.72324">
        <ele>1641.603055819</ele>
        <time>2016-06-12T12:03:39Z</time>
      </trkpt>
      <trkpt lat="45.34508" lon="5.72308">
        <ele>1645.114916962</ele>
        <time>2016-06-12T12:03:49Z</time>
      </trkpt>
      <trkpt lat="45.3452" lon="5.72306">
        <ele>1647.891231054</ele>
        <time>2016-06-12T12:03:54Z</time>
      </trkpt>
      <trkpt lat="45.34523" lon="5.72309">
        <ele>1647.891231054</ele>
        <time>2016-06-12T12:04:04Z</time>
      </trkpt>
      <trkpt lat="45.34523" lon="5.72308">
        <ele>1647.891231054</ele>
        <time>2016-06-12T12:04:09Z</time>
      </trkpt>
      <trkpt lat="45.34542" lon="5.72306">
        <ele>1648.830923447</ele>
        <time>2016-06-12T12:04:19Z</time>
      </trkpt>
      <trkpt lat="45.34554" lon="5.72298">
        <ele>1649.657213431</ele>
        <time>2016-06-12T12:04:24Z</time>
      </trkpt>
      <trkpt lat="45.34581" lon="5.72292">
        <ele>1650.237848951</ele>
        <time>2016-06-12T12:04:39Z</time>
      </trkpt>
      <trkpt lat="45.34589" lon="5.72289">
        <ele>1650.237848951</ele>
        <time>2016-06-12T12:04:44Z</time>
      </trkpt>
      <trkpt lat="45.34606" lon="5.72281">
        <ele>1650.162871405</ele>
        <time>2016-06-12T12:04:54Z</time>
      </trkpt>
      <trkpt lat="45.34616" lon="5.72283">
        <ele>1649.919032252</ele>
        <time>2016-06-12T12:04:59Z</time>
      </trkpt>
      <trkpt lat="45.34635" lon="5.72274">
        <ele>1649.813754138</ele>
        <time>2016-06-12T12:05:09Z</time>
      </trkpt>
      <trkpt lat="45.34649" lon="5.72277">
        <ele>1650.275641542</ele>
        <time>2016-06-12T12:05:14Z</time>
      </trkpt>
      <trkpt lat="45.3466" lon="5.72278">
        <ele>1650.547354399</ele>
        <time>2016-06-12T12:05:24Z</time>
      </trkpt>
      <trkpt lat="45.34674" lon="5.72278">
        <ele>1650.360054447</ele>
        <time>2016-06-12T12:05:29Z</time>
      </trkpt>
      <trkpt lat="45.34691" lon="5.72279">
        <ele>1649.465921605</ele>
        <time>2016-06-12T12:05:39Z</time>
      </trkpt>
      <trkpt lat="45.34699" lon="5.72283">
        <ele>1649.465921605</ele>
        <time>2016-06-12T12:05:44Z</time>
      </trkpt>
      <trkpt lat="45.34726" lon="5.72286">
        <ele>1648.35784144</ele>
        <time>2016-06-12T12:05:54Z</time>
      </trkpt>
      <trkpt lat="45.34734" lon="5.72288">
        <ele>1647.204811535</ele>
        <time>2016-06-12T12:05:59Z</time>
      </trkpt>
      <trkpt lat="45.34743" lon="5.72288">
        <ele>1647.204811535</ele>
        <time>2016-06-12T12:06:09Z</time>
      </trkpt>
      <trkpt lat="45.34754" lon="5.72297">
        <ele>1646.019349401</ele>
        <time>2016-06-12T12:06:14Z</time>
      </trkpt>
      <trkpt lat="45.34782" lon="5.72313">
        <ele>1644.092484934</ele>
        <time>2016-06-12T12:06:29Z</time>
      </trkpt>
      <trkpt lat="45.3479" lon="5.72319">
        <ele>1644.092484934</ele>
        <time>2016-06-12T12:06:34Z</time>
      </trkpt>
      <trkpt lat="45.34815" lon="5.72318">
        <ele>1642.642729079</ele>
        <time>2016-06-12T12:06:44Z</time>
      </trkpt>
      <trkpt lat="45.34822" lon="5.72317">
        <ele>1642.642729079</ele>
        <time>2016-06-12T12:06:49Z</time>
      </trkpt>
      <trkpt lat="45.34847" lon="5.72305">
        <ele>1641.356487096</ele>
        <time>2016-06-12T12:06:59Z</time>
      </trkpt>
      <trkpt lat="45.34855" lon="5.72312">
        <ele>1641.356487096</ele>
        <time>2016-06-12T12:07:04Z</time>
      </trkpt>
      <trkpt lat="45.34874" lon="5.7231">
        <ele>1639.942578965</ele>
        <time>2016-06-12T12:07:14Z</time>
      </trkpt>
      <trkpt lat="45.34887" lon="5.72308">
        <ele>1638.275503829</ele>
        <time>2016-06-12T12:07:19Z</time>
      </trkpt>
      <trkpt lat="45.34914" lon="5.72303">
        <ele>1636.960051866</ele>
        <time>2016-06-12T12:07:29Z</time>
      </trkpt>
      <trkpt lat="45.34922" lon="5.72304">
        <ele>1636.960051866</ele>
        <time>2016-06-12T12:07:34Z</time>
      </trkpt>
      <trkpt lat="45.34936" lon="5.72302">
        <ele>1635.402502751</ele>
        <time>2016-06-12T12:07:44Z</time>
      </trkpt>
      <trkpt lat="45.34946" lon="5.72301">
        <ele>1633.773766471</ele>
        <time>2016-06-12T12:07:49Z</time>
      </trkpt>
      <trkpt lat="45.34962" lon="5.72279">
        <ele>1632.376279851</ele>
        <time>2016-06-12T12:07:59Z</time>
      </trkpt>
      <trkpt lat="45.34973" lon="5.72282">
        <ele>1630.768820439</ele>
        <time>2016-06-12T12:08:04Z</time>
      </trkpt>
      <trkpt lat="45.35005" lon="5.72264">
        <ele>1629.407588603</ele>
        <time>2016-06-12T12:08:19Z</time>
      </trkpt>
      <trkpt lat="45.35011" lon="5.7226">
        <ele>1629.407588603</ele>
        <time>2016-06-12T12:08:24Z</time>
      </trkpt>
      <trkpt lat="45.35023" lon="5.72263">
        <ele>1627.849663559</ele>
        <time>2016-06-12T12:08:34Z</time>
      </trkpt>
      <trkpt lat="45.35029" lon="5.72264">
        <ele>1627.849663559</ele>
        <time>2016-06-12T12:08:39Z</time>
      </trkpt>
      <trkpt lat="45.35047" lon="5.72264">
        <ele>1625.829067476</ele>
        <time>2016-06-12T12:08:49Z</time>
      </trkpt>
      <trkpt lat="45.35058" lon="5.72262">
        <ele>1624.109175901</ele>
        <time>2016-06-12T12:08:54Z</time>
      </trkpt>
      <trkpt lat="45.35063" lon="5.72264">
        <ele>1624.109175901</ele>
        <time>2016-06-12T12:09:04Z</time>
      </trkpt>
      <trkpt lat="45.35069" lon="5.72263">
        <ele>1621.666843097</ele>
        <time>2016-06-12T12:09:09Z</time>
      </trkpt>
      <trkpt lat="45.35071" lon="5.72263">
        <ele>1621.666843097</ele>
        <time>2016-06-12T12:09:14Z</time>
      </trkpt>
      <trkpt lat="45.35071" lon="5.72264">
        <ele>1621.666843097</ele>
        <time>2016-06-12T12:09:19Z</time>
      </trkpt>
      <trkpt lat="45.3507" lon="5.72265">
        <ele>1621.666843097</ele>
        <time>2016-06-12T12:09:24Z</time>
      </trkpt>
      <trkpt lat="45.3507" lon="5.72265">
        <ele>1621.666843097</ele>
        <time>2016-06-12T12:09:29Z</time>
      </trkpt>
      <trkpt lat="45.3507" lon="5.72265">
        <ele>1621.666843097</ele>
        <time>2016-06-12T12:09:34Z</time>
      </trkpt>
      <trkpt lat="45.3507" lon="5.72265">
        <ele>1621.666843097</ele>
        <time>2016-06-12T12:09:39Z</time>
      </trkpt>
      <trkpt lat="45.3507" lon="5.72265">
        <ele>1621.666843097</ele>
        <time>2016-06-12T12:09:44Z</time>
      </trkpt>
      <trkpt lat="45.3507" lon="5.72265">
        <ele>1621.666843097</ele>
        <time>2016-06-12T12:09:49Z</time>
      </trkpt>
      <trkpt lat="45.35077" lon="5.7226">
        <ele>1619.141060105</ele>
        <time>2016-06-12T12:09:54Z</time>
      </trkpt>
      <trkpt lat="45.35096" lon="5.72248">
        <ele>1617.267945924</ele>
        <time>2016-06-12T12:10:04Z</time>
      </trkpt>
      <trkpt lat="45.35104" lon="5.72249">
        <ele>1617.267945924</ele>
        <time>2016-06-12T12:10:09Z</time>
      </trkpt>
      <trkpt lat="45.35124" lon="5.72237">
        <ele>1615.574543203</ele>
        <time>2016-06-12T12:10:19Z</time>
      </trkpt>
      <trkpt lat="45.35127" lon="5.7224">
        <ele>1615.574543203</ele>
        <time>2016-06-12T12:10:24Z</time>
      </trkpt>
      <trkpt lat="45.35129" lon="5.72241">
        <ele>1615.574543203</ele>
        <time>2016-06-12T12:10:34Z</time>
      </trkpt>
      <trkpt lat="45.35128" lon="5.7224">
        <ele>1615.574543203</ele>
        <time>2016-06-12T12:10:39Z</time>
      </trkpt>
      <trkpt lat="45.35135" lon="5.72238">
        <ele>1605.551610363</ele>
        <time>2016-06-12T12:10:49Z</time>
      </trkpt>
      <trkpt lat="45.35138" lon="5.72241">
        <ele>1605.551610363</ele>
        <time>2016-06-12T12:10:54Z</time>
      </trkpt>
      <trkpt lat="45.35159" lon="5.72236">
        <ele>1603.981058579</ele>
        <time>2016-06-12T12:11:04Z</time>
      </trkpt>
      <trkpt lat="45.35166" lon="5.72228">
        <ele>1603.981058579</ele>
        <time>2016-06-12T12:11:09Z</time>
      </trkpt>
      <trkpt lat="45.35173" lon="5.72215">
        <ele>1602.753747818</ele>
        <time>2016-06-12T12:11:19Z</time>
      </trkpt>
      <trkpt lat="45.35177" lon="5.72211">
        <ele>1602.753747818</ele>
        <time>2016-06-12T12:11:24Z</time>
      </trkpt>
      <trkpt lat="45.35186" lon="5.72198">
        <ele>1602.425167136</ele>
        <time>2016-06-12T12:11:34Z</time>
      </trkpt>
      <trkpt lat="45.35188" lon="5.72192">
        <ele>1602.425167136</ele>
        <time>2016-06-12T12:11:39Z</time>
      </trkpt>
      <trkpt lat="45.35192" lon="5.72186">
        <ele>1602.210154297</ele>
        <time>2016-06-12T12:11:49Z</time>
      </trkpt>
      <trkpt lat="45.35192" lon="5.72186">
        <ele>1602.210154297</ele>
        <time>2016-06-12T12:11:54Z</time>
      </trkpt>
      <trkpt lat="45.35193" lon="5.72185">
        <ele>1602.210154297</ele>
        <time>2016-06-12T12:11:59Z</time>
      </trkpt>
      <trkpt lat="45.35193" lon="5.72185">
        <ele>1602.210154297</ele>
        <time>2016-06-12T12:12:04Z</time>
      </trkpt>
      <trkpt lat="45.35193" lon="5.72185">
        <ele>1602.210154297</ele>
        <time>2016-06-12T12:12:09Z</time>
      </trkpt>
      <trkpt lat="45.35193" lon="5.72185">
        <ele>1602.210154297</ele>
        <time>2016-06-12T12:12:14Z</time>
      </trkpt>
      <trkpt lat="45.35193" lon="5.72185">
        <ele>1602.210154297</ele>
        <time>2016-06-12T12:12:19Z</time>
      </trkpt>
      <trkpt lat="45.352" lon="5.72184">
        <ele>1602.210154297</ele>
        <time>2016-06-12T12:12:29Z</time>
      </trkpt>
      <trkpt lat="45.3521" lon="5.72173">
        <ele>1603.254046963</ele>
        <time>2016-06-12T12:12:34Z</time>
      </trkpt>
      <trkpt lat="45.35225" lon="5.72168">
        <ele>1605.317235489</ele>
        <time>2016-06-12T12:12:49Z</time>
      </trkpt>
      <trkpt lat="45.3523" lon="5.7216">
        <ele>1605.317235489</ele>
        <time>2016-06-12T12:12:54Z</time>
      </trkpt>
      <trkpt lat="45.35237" lon="5.72153">
        <ele>1607.454046515</ele>
        <time>2016-06-12T12:13:04Z</time>
      </trkpt>
      <trkpt lat="45.35237" lon="5.72153">
        <ele>1607.454046515</ele>
        <time>2016-06-12T12:13:09Z</time>
      </trkpt>
      <trkpt lat="45.35237" lon="5.72153">
        <ele>1607.454046515</ele>
        <time>2016-06-12T12:13:14Z</time>
      </trkpt>
      <trkpt lat="45.35237" lon="5.72153">
        <ele>1607.454046515</ele>
        <time>2016-06-12T12:13:19Z</time>
      </trkpt>
      <trkpt lat="45.35238" lon="5.72153">
        <ele>1607.454046515</ele>
        <time>2016-06-12T12:13:24Z</time>
      </trkpt>
      <trkpt lat="45.35238" lon="5.72153">
        <ele>1607.454046515</ele>
        <time>2016-06-12T12:13:29Z</time>
      </trkpt>
      <trkpt lat="45.3525" lon="5.72148">
        <ele>1609.940741376</ele>
        <time>2016-06-12T12:13:39Z</time>
      </trkpt>
      <trkpt lat="45.35258" lon="5.72144">
        <ele>1609.940741376</ele>
        <time>2016-06-12T12:13:44Z</time>
      </trkpt>
      <trkpt lat="45.35262" lon="5.7214">
        <ele>1613.320348853</ele>
        <time>2016-06-12T12:13:54Z</time>
      </trkpt>
      <trkpt lat="45.35268" lon="5.72143">
        <ele>1613.320348853</ele>
        <time>2016-06-12T12:13:59Z</time>
      </trkpt>
      <trkpt lat="45.35278" lon="5.7216">
        <ele>1616.508138242</ele>
        <time>2016-06-12T12:14:09Z</time>
      </trkpt>
      <trkpt lat="45.35285" lon="5.72161">
        <ele>1616.508138242</ele>
        <time>2016-06-12T12:14:14Z</time>
      </trkpt>
      <trkpt lat="45.35288" lon="5.72162">
        <ele>1619.364163905</ele>
        <time>2016-06-12T12:14:24Z</time>
      </trkpt>
      <trkpt lat="45.35289" lon="5.72162">
        <ele>1619.364163905</ele>
        <time>2016-06-12T12:14:29Z</time>
      </trkpt>
      <trkpt lat="45.35302" lon="5.72165">
        <ele>1622.047845896</ele>
        <time>2016-06-12T12:14:39Z</time>
      </trkpt>
      <trkpt lat="45.35318" lon="5.72169">
        <ele>1624.130896891</ele>
        <time>2016-06-12T12:14:44Z</time>
      </trkpt>
      <trkpt lat="45.35335" lon="5.72182">
        <ele>1625.362278588</ele>
        <time>2016-06-12T12:14:54Z</time>
      </trkpt>
      <trkpt lat="45.35341" lon="5.72185">
        <ele>1625.362278588</ele>
        <time>2016-06-12T12:14:59Z</time>
      </trkpt>
      <trkpt lat="45.35358" lon="5.72201">
        <ele>1625.944127831</ele>
        <time>2016-06-12T12:15:09Z</time>
      </trkpt>
      <trkpt lat="45.35371" lon="5.72211">
        <ele>1626.7861369</ele>
        <time>2016-06-12T12:15:14Z</time>
      </trkpt>
      <trkpt lat="45.35386" lon="5.72227">
        <ele>1627.721701374</ele>
        <time>2016-06-12T12:15:24Z</time>
      </trkpt>
      <trkpt lat="45.35392" lon="5.72235">
        <ele>1627.721701374</ele>
        <time>2016-06-12T12:15:29Z</time>
      </trkpt>
      <trkpt lat="45.3541" lon="5.72253">
        <ele>1628.596237426</ele>
        <time>2016-06-12T12:15:39Z</time>
      </trkpt>
      <trkpt lat="45.35414" lon="5.72261">
        <ele>1628.596237426</ele>
        <time>2016-06-12T12:15:44Z</time>
      </trkpt>
      <trkpt lat="45.35424" lon="5.7227">
        <ele>1629.410850164</ele>
        <time>2016-06-12T12:15:49Z</time>
      </trkpt>
      <trkpt lat="45.35429" lon="5.72279">
        <ele>1629.410850164</ele>
        <time>2016-06-12T12:15:54Z</time>
      </trkpt>
      <trkpt lat="45.35435" lon="5.72284">
        <ele>1629.734454424</ele>
        <time>2016-06-12T12:15:59Z</time>
      </trkpt>
      <trkpt lat="45.35437" lon="5.72289">
        <ele>1629.734454424</ele>
        <time>2016-06-12T12:16:04Z</time>
      </trkpt>
      <trkpt lat="45.35442" lon="5.72292">
        <ele>1630.321959851</ele>
        <time>2016-06-12T12:16:09Z</time>
      </trkpt>
      <trkpt lat="45.35446" lon="5.72297">
        <ele>1630.321959851</ele>
        <time>2016-06-12T12:16:14Z</time>
      </trkpt>
      <trkpt lat="45.35447" lon="5.72296">
        <ele>1630.321959851</ele>
        <time>2016-06-12T12:16:19Z</time>
      </trkpt>
      <trkpt lat="45.35449" lon="5.723">
        <ele>1631.007477603</ele>
        <time>2016-06-12T12:16:24Z</time>
      </trkpt>
      <trkpt lat="45.35456" lon="5.72307">
        <ele>1631.92531921</ele>
        <time>2016-06-12T12:16:29Z</time>
      </trkpt>
      <trkpt lat="45.35466" lon="5.72317">
        <ele>1632.911125495</ele>
        <time>2016-06-12T12:16:34Z</time>
      </trkpt>
      <trkpt lat="45.35473" lon="5.72327">
        <ele>1634.100716446</ele>
        <time>2016-06-12T12:16:39Z</time>
      </trkpt>
      <trkpt lat="45.35481" lon="5.72335">
        <ele>1635.331219064</ele>
        <time>2016-06-12T12:16:44Z</time>
      </trkpt>
      <trkpt lat="45.35485" lon="5.72345">
        <ele>1635.331219064</ele>
        <time>2016-06-12T12:16:49Z</time>
      </trkpt>
      <trkpt lat="45.35494" lon="5.72349">
        <ele>1636.595804495</ele>
        <time>2016-06-12T12:16:54Z</time>
      </trkpt>
      <trkpt lat="45.35504" lon="5.72356">
        <ele>1638.176360911</ele>
        <time>2016-06-12T12:16:59Z</time>
      </trkpt>
      <trkpt lat="45.35511" lon="5.72356">
        <ele>1638.176360911</ele>
        <time>2016-06-12T12:17:04Z</time>
      </trkpt>
      <trkpt lat="45.35517" lon="5.7236">
        <ele>1639.468609546</ele>
        <time>2016-06-12T12:17:09Z</time>
      </trkpt>
      <trkpt lat="45.35522" lon="5.72368">
        <ele>1639.468609546</ele>
        <time>2016-06-12T12:17:14Z</time>
      </trkpt>
      <trkpt lat="45.35529" lon="5.72374">
        <ele>1640.634124638</ele>
        <time>2016-06-12T12:17:19Z</time>
      </trkpt>
      <trkpt lat="45.35536" lon="5.72382">
        <ele>1640.634124638</ele>
        <time>2016-06-12T12:17:24Z</time>
      </trkpt>
      <trkpt lat="45.35544" lon="5.72387">
        <ele>1641.534846314</ele>
        <time>2016-06-12T12:17:29Z</time>
      </trkpt>
      <trkpt lat="45.35551" lon="5.72397">
        <ele>1642.764259663</ele>
        <time>2016-06-12T12:17:34Z</time>
      </trkpt>
      <trkpt lat="45.35554" lon="5.72403">
        <ele>1642.764259663</ele>
        <time>2016-06-12T12:17:39Z</time>
      </trkpt>
      <trkpt lat="45.35557" lon="5.72406">
        <ele>1642.764259663</ele>
        <time>2016-06-12T12:17:44Z</time>
      </trkpt>
      <trkpt lat="45.35558" lon="5.72408">
        <ele>1644.006769569</ele>
        <time>2016-06-12T12:17:49Z</time>
      </trkpt>
      <trkpt lat="45.35558" lon="5.72409">
        <ele>1644.006769569</ele>
        <time>2016-06-12T12:17:54Z</time>
      </trkpt>
      <trkpt lat="45.35558" lon="5.72409">
        <ele>1644.006769569</ele>
        <time>2016-06-12T12:17:59Z</time>
      </trkpt>
      <trkpt lat="45.35558" lon="5.72409">
        <ele>1644.006769569</ele>
        <time>2016-06-12T12:18:04Z</time>
      </trkpt>
      <trkpt lat="45.35558" lon="5.72409">
        <ele>1644.006769569</ele>
        <time>2016-06-12T12:18:09Z</time>
      </trkpt>
      <trkpt lat="45.35559" lon="5.72409">
        <ele>1644.006769569</ele>
        <time>2016-06-12T12:18:14Z</time>
      </trkpt>
      <trkpt lat="45.35567" lon="5.72426">
        <ele>1645.258256876</ele>
        <time>2016-06-12T12:18:29Z</time>
      </trkpt>
      <trkpt lat="45.35572" lon="5.72434">
        <ele>1645.258256876</ele>
        <time>2016-06-12T12:18:34Z</time>
      </trkpt>
      <trkpt lat="45.35577" lon="5.72446">
        <ele>1646.082653466</ele>
        <time>2016-06-12T12:18:44Z</time>
      </trkpt>
      <trkpt lat="45.35581" lon="5.72451">
        <ele>1646.082653466</ele>
        <time>2016-06-12T12:18:49Z</time>
      </trkpt>
      <trkpt lat="45.35593" lon="5.72455">
        <ele>1646.36545094</ele>
        <time>2016-06-12T12:18:59Z</time>
      </trkpt>
      <trkpt lat="45.356" lon="5.72455">
        <ele>1646.36545094</ele>
        <time>2016-06-12T12:19:04Z</time>
      </trkpt>
      <trkpt lat="45.35606" lon="5.7246">
        <ele>1645.713950999</ele>
        <time>2016-06-12T12:19:14Z</time>
      </trkpt>
      <trkpt lat="45.35612" lon="5.72467">
        <ele>1645.713950999</ele>
        <time>2016-06-12T12:19:19Z</time>
      </trkpt>
      <trkpt lat="45.35625" lon="5.72471">
        <ele>1644.199349319</ele>
        <time>2016-06-12T12:19:29Z</time>
      </trkpt>
      <trkpt lat="45.35638" lon="5.72475">
        <ele>1643.475335588</ele>
        <time>2016-06-12T12:19:34Z</time>
      </trkpt>
      <trkpt lat="45.35652" lon="5.7247">
        <ele>1642.477966207</ele>
        <time>2016-06-12T12:19:44Z</time>
      </trkpt>
      <trkpt lat="45.3566" lon="5.72468">
        <ele>1641.375158808</ele>
        <time>2016-06-12T12:19:49Z</time>
      </trkpt>
      <trkpt lat="45.35673" lon="5.72481">
        <ele>1639.890490443</ele>
        <time>2016-06-12T12:19:59Z</time>
      </trkpt>
      <trkpt lat="45.35673" lon="5.72485">
        <ele>1639.890490443</ele>
        <time>2016-06-12T12:20:04Z</time>
      </trkpt>
      <trkpt lat="45.35684" lon="5.72487">
        <ele>1638.057154084</ele>
        <time>2016-06-12T12:20:14Z</time>
      </trkpt>
      <trkpt lat="45.35693" lon="5.72486">
        <ele>1638.057154084</ele>
        <time>2016-06-12T12:20:19Z</time>
      </trkpt>
      <trkpt lat="45.35708" lon="5.72502">
        <ele>1636.05099336</ele>
        <time>2016-06-12T12:20:34Z</time>
      </trkpt>
      <trkpt lat="45.35711" lon="5.72507">
        <ele>1636.05099336</ele>
        <time>2016-06-12T12:20:39Z</time>
      </trkpt>
      <trkpt lat="45.35723" lon="5.72514">
        <ele>1633.74717888</ele>
        <time>2016-06-12T12:20:49Z</time>
      </trkpt>
      <trkpt lat="45.35734" lon="5.72517">
        <ele>1631.319071714</ele>
        <time>2016-06-12T12:20:54Z</time>
      </trkpt>
      <trkpt lat="45.35737" lon="5.72509">
        <ele>1631.319071714</ele>
        <time>2016-06-12T12:21:04Z</time>
      </trkpt>
      <trkpt lat="45.35739" lon="5.72507">
        <ele>1628.639368368</ele>
        <time>2016-06-12T12:21:09Z</time>
      </trkpt>
      <trkpt lat="45.35739" lon="5.72506">
        <ele>1628.639368368</ele>
        <time>2016-06-12T12:21:19Z</time>
      </trkpt>
      <trkpt lat="45.35739" lon="5.72506">
        <ele>1628.639368368</ele>
        <time>2016-06-12T12:21:24Z</time>
      </trkpt>
      <trkpt lat="45.35739" lon="5.72506">
        <ele>1628.639368368</ele>
        <time>2016-06-12T12:21:34Z</time>
      </trkpt>
      <trkpt lat="45.35739" lon="5.72492">
        <ele>1626.311304411</ele>
        <time>2016-06-12T12:21:39Z</time>
      </trkpt>
      <trkpt lat="45.35739" lon="5.72485">
        <ele>1626.311304411</ele>
        <time>2016-06-12T12:21:44Z</time>
      </trkpt>
      <trkpt lat="45.35743" lon="5.72483">
        <ele>1623.739834267</ele>
        <time>2016-06-12T12:21:54Z</time>
      </trkpt>
      <trkpt lat="45.35747" lon="5.7248">
        <ele>1623.739834267</ele>
        <time>2016-06-12T12:21:59Z</time>
      </trkpt>
      <trkpt lat="45.35747" lon="5.72477">
        <ele>1623.739834267</ele>
        <time>2016-06-12T12:22:09Z</time>
      </trkpt>
      <trkpt lat="45.35747" lon="5.72476">
        <ele>1623.739834267</ele>
        <time>2016-06-12T12:22:14Z</time>
      </trkpt>
      <trkpt lat="45.35747" lon="5.72476">
        <ele>1623.739834267</ele>
        <time>2016-06-12T12:22:24Z</time>
      </trkpt>
      <trkpt lat="45.35745" lon="5.7247">
        <ele>1619.797751358</ele>
        <time>2016-06-12T12:22:29Z</time>
      </trkpt>
      <trkpt lat="45.35738" lon="5.72457">
        <ele>1615.606035176</ele>
        <time>2016-06-12T12:22:39Z</time>
      </trkpt>
      <trkpt lat="45.35738" lon="5.72442">
        <ele>1611.915646455</ele>
        <time>2016-06-12T12:22:44Z</time>
      </trkpt>
      <trkpt lat="45.35744" lon="5.72443">
        <ele>1611.915646455</ele>
        <time>2016-06-12T12:22:54Z</time>
      </trkpt>
      <trkpt lat="45.35749" lon="5.72439">
        <ele>1608.412025544</ele>
        <time>2016-06-12T12:22:59Z</time>
      </trkpt>
      <trkpt lat="45.35753" lon="5.72453">
        <ele>1604.226560158</ele>
        <time>2016-06-12T12:23:09Z</time>
      </trkpt>
      <trkpt lat="45.35761" lon="5.72449">
        <ele>1604.226560158</ele>
        <time>2016-06-12T12:23:14Z</time>
      </trkpt>
      <trkpt lat="45.35757" lon="5.72439">
        <ele>1600.141371755</ele>
        <time>2016-06-12T12:23:24Z</time>
      </trkpt>
      <trkpt lat="45.35758" lon="5.72442">
        <ele>1600.141371755</ele>
        <time>2016-06-12T12:23:29Z</time>
      </trkpt>
      <trkpt lat="45.35758" lon="5.72438">
        <ele>1600.141371755</ele>
        <time>2016-06-12T12:23:44Z</time>
      </trkpt>
      <trkpt lat="45.35758" lon="5.72438">
        <ele>1600.141371755</ele>
        <time>2016-06-12T12:23:49Z</time>
      </trkpt>
      <trkpt lat="45.35759" lon="5.72438">
        <ele>1600.141371755</ele>
        <time>2016-06-12T12:23:59Z</time>
      </trkpt>
      <trkpt lat="45.35759" lon="5.72438">
        <ele>1600.141371755</ele>
        <time>2016-06-12T12:24:04Z</time>
      </trkpt>
      <trkpt lat="45.35761" lon="5.72428">
        <ele>1596.01595321</ele>
        <time>2016-06-12T12:24:14Z</time>
      </trkpt>
      <trkpt lat="45.35761" lon="5.72419">
        <ele>1596.01595321</ele>
        <time>2016-06-12T12:24:19Z</time>
      </trkpt>
      <trkpt lat="45.35757" lon="5.72407">
        <ele>1592.296435619</ele>
        <time>2016-06-12T12:24:29Z</time>
      </trkpt>
      <trkpt lat="45.35755" lon="5.72398">
        <ele>1592.296435619</ele>
        <time>2016-06-12T12:24:34Z</time>
      </trkpt>
      <trkpt lat="45.35753" lon="5.72391">
        <ele>1588.53011772</ele>
        <time>2016-06-12T12:24:44Z</time>
      </trkpt>
      <trkpt lat="45.35752" lon="5.7239">
        <ele>1588.53011772</ele>
        <time>2016-06-12T12:24:49Z</time>
      </trkpt>
      <trkpt lat="45.35752" lon="5.72389">
        <ele>1588.53011772</ele>
        <time>2016-06-12T12:24:59Z</time>
      </trkpt>
      <trkpt lat="45.35752" lon="5.72392">
        <ele>1588.53011772</ele>
        <time>2016-06-12T12:25:04Z</time>
      </trkpt>
      <trkpt lat="45.35752" lon="5.72387">
        <ele>1588.53011772</ele>
        <time>2016-06-12T12:25:14Z</time>
      </trkpt>
      <trkpt lat="45.35753" lon="5.72384">
        <ele>1583.432750581</ele>
        <time>2016-06-12T12:25:19Z</time>
      </trkpt>
      <trkpt lat="45.35755" lon="5.72384">
        <ele>1583.432750581</ele>
        <time>2016-06-12T12:25:34Z</time>
      </trkpt>
      <trkpt lat="45.35758" lon="5.72387">
        <ele>1583.432750581</ele>
        <time>2016-06-12T12:25:39Z</time>
      </trkpt>
      <trkpt lat="45.3576" lon="5.72387">
        <ele>1583.432750581</ele>
        <time>2016-06-12T12:25:49Z</time>
      </trkpt>
      <trkpt lat="45.3576" lon="5.72387">
        <ele>1583.432750581</ele>
        <time>2016-06-12T12:25:54Z</time>
      </trkpt>
      <trkpt lat="45.3576" lon="5.72387">
        <ele>1583.432750581</ele>
        <time>2016-06-12T12:26:04Z</time>
      </trkpt>
      <trkpt lat="45.3576" lon="5.72387">
        <ele>1583.432750581</ele>
        <time>2016-06-12T12:26:09Z</time>
      </trkpt>
      <trkpt lat="45.35751" lon="5.72381">
        <ele>1576.682544105</ele>
        <time>2016-06-12T12:26:19Z</time>
      </trkpt>
      <trkpt lat="45.35739" lon="5.72371">
        <ele>1570.147351298</ele>
        <time>2016-06-12T12:26:24Z</time>
      </trkpt>
      <trkpt lat="45.35729" lon="5.72354">
        <ele>1564.115779303</ele>
        <time>2016-06-12T12:26:34Z</time>
      </trkpt>
      <trkpt lat="45.35721" lon="5.72355">
        <ele>1564.115779303</ele>
        <time>2016-06-12T12:26:39Z</time>
      </trkpt>
      <trkpt lat="45.35716" lon="5.72343">
        <ele>1557.700590403</ele>
        <time>2016-06-12T12:26:49Z</time>
      </trkpt>
      <trkpt lat="45.35713" lon="5.72343">
        <ele>1557.700590403</ele>
        <time>2016-06-12T12:26:54Z</time>
      </trkpt>
      <trkpt lat="45.35713" lon="5.72341">
        <ele>1557.700590403</ele>
        <time>2016-06-12T12:27:04Z</time>
      </trkpt>
      <trkpt lat="45.35713" lon="5.72341">
        <ele>1557.700590403</ele>
        <time>2016-06-12T12:27:09Z</time>
      </trkpt>
      <trkpt lat="45.35707" lon="5.72326">
        <ele>1552.530328431</ele>
        <time>2016-06-12T12:27:19Z</time>
      </trkpt>
      <trkpt lat="45.35713" lon="5.72322">
        <ele>1552.530328431</ele>
        <time>2016-06-12T12:27:24Z</time>
      </trkpt>
      <trkpt lat="45.35721" lon="5.72335">
        <ele>1546.507258014</ele>
        <time>2016-06-12T12:27:39Z</time>
      </trkpt>
      <trkpt lat="45.35724" lon="5.72335">
        <ele>1546.507258014</ele>
        <time>2016-06-12T12:27:44Z</time>
      </trkpt>
      <trkpt lat="45.35733" lon="5.72336">
        <ele>1540.716081945</ele>
        <time>2016-06-12T12:27:54Z</time>
      </trkpt>
      <trkpt lat="45.35732" lon="5.72335">
        <ele>1540.716081945</ele>
        <time>2016-06-12T12:27:59Z</time>
      </trkpt>
      <trkpt lat="45.35729" lon="5.72337">
        <ele>1540.716081945</ele>
        <time>2016-06-12T12:28:09Z</time>
      </trkpt>
      <trkpt lat="45.35729" lon="5.72336">
        <ele>1540.716081945</ele>
        <time>2016-06-12T12:28:14Z</time>
      </trkpt>
      <trkpt lat="45.35727" lon="5.72334">
        <ele>1540.716081945</ele>
        <time>2016-06-12T12:28:24Z</time>
      </trkpt>
      <trkpt lat="45.35712" lon="5.72317">
        <ele>1534.287328687</ele>
        <time>2016-06-12T12:28:29Z</time>
      </trkpt>
      <trkpt lat="45.3571" lon="5.723">
        <ele>1527.857892502</ele>
        <time>2016-06-12T12:28:39Z</time>
      </trkpt>
      <trkpt lat="45.35709" lon="5.72297">
        <ele>1527.857892502</ele>
        <time>2016-06-12T12:28:44Z</time>
      </trkpt>
      <trkpt lat="45.35711" lon="5.72299">
        <ele>1527.857892502</ele>
        <time>2016-06-12T12:28:54Z</time>
      </trkpt>
      <trkpt lat="45.35711" lon="5.72296">
        <ele>1527.857892502</ele>
        <time>2016-06-12T12:28:59Z</time>
      </trkpt>
      <trkpt lat="45.35711" lon="5.72297">
        <ele>1527.857892502</ele>
        <time>2016-06-12T12:29:09Z</time>
      </trkpt>
      <trkpt lat="45.35711" lon="5.72297">
        <ele>1527.857892502</ele>
        <time>2016-06-12T12:29:14Z</time>
      </trkpt>
      <trkpt lat="45.35721" lon="5.72311">
        <ele>1520.864579578</ele>
        <time>2016-06-12T12:29:24Z</time>
      </trkpt>
      <trkpt lat="45.35724" lon="5.72308">
        <ele>1520.864579578</ele>
        <time>2016-06-12T12:29:29Z</time>
      </trkpt>
      <trkpt lat="45.35729" lon="5.72315">
        <ele>1513.507281066</ele>
        <time>2016-06-12T12:29:39Z</time>
      </trkpt>
      <trkpt lat="45.35734" lon="5.72318">
        <ele>1513.507281066</ele>
        <time>2016-06-12T12:29:44Z</time>
      </trkpt>
      <trkpt lat="45.35741" lon="5.72318">
        <ele>1506.260012941</ele>
        <time>2016-06-12T12:29:54Z</time>
      </trkpt>
      <trkpt lat="45.35741" lon="5.72317">
        <ele>1506.260012941</ele>
        <time>2016-06-12T12:29:59Z</time>
      </trkpt>
      <trkpt lat="45.35741" lon="5.72316">
        <ele>1506.260012941</ele>
        <time>2016-06-12T12:30:14Z</time>
      </trkpt>
      <trkpt lat="45.35741" lon="5.72316">
        <ele>1506.260012941</ele>
        <time>2016-06-12T12:30:19Z</time>
      </trkpt>
      <trkpt lat="45.35739" lon="5.72312">
        <ele>1506.260012941</ele>
        <time>2016-06-12T12:30:29Z</time>
      </trkpt>
      <trkpt lat="45.35741" lon="5.72308">
        <ele>1506.260012941</ele>
        <time>2016-06-12T12:30:34Z</time>
      </trkpt>
      <trkpt lat="45.35738" lon="5.72304">
        <ele>1499.272995235</ele>
        <time>2016-06-12T12:30:44Z</time>
      </trkpt>
      <trkpt lat="45.35735" lon="5.72299">
        <ele>1499.272995235</ele>
        <time>2016-06-12T12:30:49Z</time>
      </trkpt>
      <trkpt lat="45.35708" lon="5.72273">
        <ele>1491.819562843</ele>
        <time>2016-06-12T12:30:59Z</time>
      </trkpt>
      <trkpt lat="45.35702" lon="5.72257">
        <ele>1485.388948497</ele>
        <time>2016-06-12T12:31:04Z</time>
      </trkpt>
      <trkpt lat="45.35703" lon="5.72251">
        <ele>1485.388948497</ele>
        <time>2016-06-12T12:31:14Z</time>
      </trkpt>
      <trkpt lat="45.35705" lon="5.72252">
        <ele>1485.388948497</ele>
        <time>2016-06-12T12:31:19Z</time>
      </trkpt>
      <trkpt lat="45.35722" lon="5.72261">
        <ele>1479.195989272</ele>
        <time>2016-06-12T12:31:34Z</time>
      </trkpt>
      <trkpt lat="45.35723" lon="5.7226">
        <ele>1479.195989272</ele>
        <time>2016-06-12T12:31:39Z</time>
      </trkpt>
      <trkpt lat="45.35727" lon="5.72263">
        <ele>1479.195989272</ele>
        <time>2016-06-12T12:31:49Z</time>
      </trkpt>
      <trkpt lat="45.35736" lon="5.72272">
        <ele>1473.52085274</ele>
        <time>2016-06-12T12:31:54Z</time>
      </trkpt>
      <trkpt lat="45.35748" lon="5.7228">
        <ele>1468.477110151</ele>
        <time>2016-06-12T12:32:04Z</time>
      </trkpt>
      <trkpt lat="45.35755" lon="5.72278">
        <ele>1468.477110151</ele>
        <time>2016-06-12T12:32:09Z</time>
      </trkpt>
      <trkpt lat="45.35769" lon="5.72291">
        <ele>1464.167779972</ele>
        <time>2016-06-12T12:32:19Z</time>
      </trkpt>
      <trkpt lat="45.35777" lon="5.72298">
        <ele>1460.109386745</ele>
        <time>2016-06-12T12:32:24Z</time>
      </trkpt>
      <trkpt lat="45.3579" lon="5.72299">
        <ele>1457.293980456</ele>
        <time>2016-06-12T12:32:34Z</time>
      </trkpt>
      <trkpt lat="45.35794" lon="5.72301">
        <ele>1457.293980456</ele>
        <time>2016-06-12T12:32:39Z</time>
      </trkpt>
      <trkpt lat="45.35789" lon="5.72299">
        <ele>1454.186987494</ele>
        <time>2016-06-12T12:32:49Z</time>
      </trkpt>
      <trkpt lat="45.35789" lon="5.72299">
        <ele>1454.186987494</ele>
        <time>2016-06-12T12:32:54Z</time>
      </trkpt>
      <trkpt lat="45.35789" lon="5.72298">
        <ele>1454.186987494</ele>
        <time>2016-06-12T12:33:04Z</time>
      </trkpt>
      <trkpt lat="45.3578" lon="5.72287">
        <ele>1451.81693024</ele>
        <time>2016-06-12T12:33:09Z</time>
      </trkpt>
      <trkpt lat="45.35771" lon="5.72266">
        <ele>1450.846181113</ele>
        <time>2016-06-12T12:33:19Z</time>
      </trkpt>
      <trkpt lat="45.35769" lon="5.72264">
        <ele>1450.846181113</ele>
        <time>2016-06-12T12:33:24Z</time>
      </trkpt>
      <trkpt lat="45.35765" lon="5.72259">
        <ele>1450.846181113</ele>
        <time>2016-06-12T12:33:34Z</time>
      </trkpt>
      <trkpt lat="45.35767" lon="5.72258">
        <ele>1449.578482525</ele>
        <time>2016-06-12T12:33:39Z</time>
      </trkpt>
      <trkpt lat="45.35775" lon="5.72254">
        <ele>1449.578482525</ele>
        <time>2016-06-12T12:33:54Z</time>
      </trkpt>
      <trkpt lat="45.35775" lon="5.72254">
        <ele>1449.578482525</ele>
        <time>2016-06-12T12:33:59Z</time>
      </trkpt>
      <trkpt lat="45.35779" lon="5.7225">
        <ele>1447.883897353</ele>
        <time>2016-06-12T12:34:09Z</time>
      </trkpt>
      <trkpt lat="45.35783" lon="5.72255">
        <ele>1447.883897353</ele>
        <time>2016-06-12T12:34:14Z</time>
      </trkpt>
      <trkpt lat="45.3579" lon="5.72265">
        <ele>1445.64303831</ele>
        <time>2016-06-12T12:34:24Z</time>
      </trkpt>
      <trkpt lat="45.358" lon="5.72267">
        <ele>1443.755441597</ele>
        <time>2016-06-12T12:34:29Z</time>
      </trkpt>
      <trkpt lat="45.35814" lon="5.72276">
        <ele>1442.621114961</ele>
        <time>2016-06-12T12:34:39Z</time>
      </trkpt>
      <trkpt lat="45.35815" lon="5.7228">
        <ele>1442.621114961</ele>
        <time>2016-06-12T12:34:44Z</time>
      </trkpt>
      <trkpt lat="45.3582" lon="5.72281">
        <ele>1442.621114961</ele>
        <time>2016-06-12T12:34:54Z</time>
      </trkpt>
      <trkpt lat="45.3582" lon="5.72282">
        <ele>1442.621114961</ele>
        <time>2016-06-12T12:34:59Z</time>
      </trkpt>
      <trkpt lat="45.35823" lon="5.72291">
        <ele>1439.582136991</ele>
        <time>2016-06-12T12:35:09Z</time>
      </trkpt>
      <trkpt lat="45.35827" lon="5.72296">
        <ele>1439.582136991</ele>
        <time>2016-06-12T12:35:14Z</time>
      </trkpt>
      <trkpt lat="45.35837" lon="5.72301">
        <ele>1436.216218154</ele>
        <time>2016-06-12T12:35:29Z</time>
      </trkpt>
      <trkpt lat="45.3584" lon="5.72304">
        <ele>1436.216218154</ele>
        <time>2016-06-12T12:35:34Z</time>
      </trkpt>
      <trkpt lat="45.35846" lon="5.72315">
        <ele>1433.55370286</ele>
        <time>2016-06-12T12:35:44Z</time>
      </trkpt>
      <trkpt lat="45.35852" lon="5.72322">
        <ele>1433.55370286</ele>
        <time>2016-06-12T12:35:49Z</time>
      </trkpt>
      <trkpt lat="45.35859" lon="5.72333">
        <ele>1430.817904841</ele>
        <time>2016-06-12T12:35:59Z</time>
      </trkpt>
      <trkpt lat="45.35867" lon="5.72338">
        <ele>1430.817904841</ele>
        <time>2016-06-12T12:36:04Z</time>
      </trkpt>
      <trkpt lat="45.3588" lon="5.72339">
        <ele>1429.018713034</ele>
        <time>2016-06-12T12:36:14Z</time>
      </trkpt>
      <trkpt lat="45.35884" lon="5.7234">
        <ele>1429.018713034</ele>
        <time>2016-06-12T12:36:19Z</time>
      </trkpt>
      <trkpt lat="45.35891" lon="5.72339">
        <ele>1428.080423695</ele>
        <time>2016-06-12T12:36:29Z</time>
      </trkpt>
      <trkpt lat="45.35896" lon="5.72342">
        <ele>1428.080423695</ele>
        <time>2016-06-12T12:36:34Z</time>
      </trkpt>
      <trkpt lat="45.35899" lon="5.72339">
        <ele>1426.345274301</ele>
        <time>2016-06-12T12:36:44Z</time>
      </trkpt>
      <trkpt lat="45.35901" lon="5.72339">
        <ele>1426.345274301</ele>
        <time>2016-06-12T12:36:49Z</time>
      </trkpt>
      <trkpt lat="45.35904" lon="5.72344">
        <ele>1426.345274301</ele>
        <time>2016-06-12T12:36:59Z</time>
      </trkpt>
      <trkpt lat="45.35904" lon="5.72344">
        <ele>1426.345274301</ele>
        <time>2016-06-12T12:37:04Z</time>
      </trkpt>
      <trkpt lat="45.35904" lon="5.72344">
        <ele>1426.345274301</ele>
        <time>2016-06-12T12:37:14Z</time>
      </trkpt>
      <trkpt lat="45.35905" lon="5.72344">
        <ele>1426.345274301</ele>
        <time>2016-06-12T12:37:19Z</time>
      </trkpt>
      <trkpt lat="45.35905" lon="5.72344">
        <ele>1426.345274301</ele>
        <time>2016-06-12T12:37:24Z</time>
      </trkpt>
      <trkpt lat="45.35905" lon="5.72344">
        <ele>1426.345274301</ele>
        <time>2016-06-12T12:37:29Z</time>
      </trkpt>
      <trkpt lat="45.35903" lon="5.72351">
        <ele>1425.450001285</ele>
        <time>2016-06-12T12:37:34Z</time>
      </trkpt>
      <trkpt lat="45.35921" lon="5.72368">
        <ele>1424.026588962</ele>
        <time>2016-06-12T12:37:44Z</time>
      </trkpt>
      <trkpt lat="45.35929" lon="5.72375">
        <ele>1422.53841194</ele>
        <time>2016-06-12T12:37:49Z</time>
      </trkpt>
      <trkpt lat="45.35939" lon="5.7239">
        <ele>1420.838641052</ele>
        <time>2016-06-12T12:37:59Z</time>
      </trkpt>
      <trkpt lat="45.3595" lon="5.72403">
        <ele>1419.656608427</ele>
        <time>2016-06-12T12:38:04Z</time>
      </trkpt>
      <trkpt lat="45.35974" lon="5.72426">
        <ele>1417.505077148</ele>
        <time>2016-06-12T12:38:19Z</time>
      </trkpt>
      <trkpt lat="45.35979" lon="5.72431">
        <ele>1417.505077148</ele>
        <time>2016-06-12T12:38:24Z</time>
      </trkpt>
      <trkpt lat="45.35989" lon="5.72439">
        <ele>1415.026474866</ele>
        <time>2016-06-12T12:38:34Z</time>
      </trkpt>
      <trkpt lat="45.35992" lon="5.72447">
        <ele>1415.026474866</ele>
        <time>2016-06-12T12:38:39Z</time>
      </trkpt>
      <trkpt lat="45.3601" lon="5.72464">
        <ele>1412.096541685</ele>
        <time>2016-06-12T12:38:49Z</time>
      </trkpt>
      <trkpt lat="45.36023" lon="5.72469">
        <ele>1409.898559512</ele>
        <time>2016-06-12T12:38:54Z</time>
      </trkpt>
      <trkpt lat="45.36028" lon="5.72475">
        <ele>1409.898559512</ele>
        <time>2016-06-12T12:39:04Z</time>
      </trkpt>
      <trkpt lat="45.36036" lon="5.7248">
        <ele>1407.07709129</ele>
        <time>2016-06-12T12:39:09Z</time>
      </trkpt>
      <trkpt lat="45.36045" lon="5.72488">
        <ele>1404.107498894</ele>
        <time>2016-06-12T12:39:19Z</time>
      </trkpt>
      <trkpt lat="45.36045" lon="5.72488">
        <ele>1404.107498894</ele>
        <time>2016-06-12T12:39:24Z</time>
      </trkpt>
      <trkpt lat="45.36045" lon="5.72489">
        <ele>1404.107498894</ele>
        <time>2016-06-12T12:39:29Z</time>
      </trkpt>
      <trkpt lat="45.36053" lon="5.72498">
        <ele>1401.43078458</ele>
        <time>2016-06-12T12:39:39Z</time>
      </trkpt>
      <trkpt lat="45.36059" lon="5.72507">
        <ele>1401.43078458</ele>
        <time>2016-06-12T12:39:44Z</time>
      </trkpt>
      <trkpt lat="45.36092" lon="5.72537">
        <ele>1398.590208503</ele>
        <time>2016-06-12T12:39:59Z</time>
      </trkpt>
      <trkpt lat="45.36096" lon="5.7254">
        <ele>1398.590208503</ele>
        <time>2016-06-12T12:40:04Z</time>
      </trkpt>
      <trkpt lat="45.36099" lon="5.72545">
        <ele>1395.595514463</ele>
        <time>2016-06-12T12:40:09Z</time>
      </trkpt>
      <trkpt lat="45.36102" lon="5.7255">
        <ele>1395.595514463</ele>
        <time>2016-06-12T12:40:14Z</time>
      </trkpt>
      <trkpt lat="45.36103" lon="5.72551">
        <ele>1395.595514463</ele>
        <time>2016-06-12T12:40:19Z</time>
      </trkpt>
      <trkpt lat="45.36103" lon="5.72552">
        <ele>1395.595514463</ele>
        <time>2016-06-12T12:40:29Z</time>
      </trkpt>
      <trkpt lat="45.36104" lon="5.72552">
        <ele>1395.595514463</ele>
        <time>2016-06-12T12:40:34Z</time>
      </trkpt>
      <trkpt lat="45.36106" lon="5.72552">
        <ele>1393.176854338</ele>
        <time>2016-06-12T12:40:44Z</time>
      </trkpt>
      <trkpt lat="45.3611" lon="5.72558">
        <ele>1393.176854338</ele>
        <time>2016-06-12T12:40:49Z</time>
      </trkpt>
      <trkpt lat="45.36114" lon="5.72558">
        <ele>1389.703480096</ele>
        <time>2016-06-12T12:40:59Z</time>
      </trkpt>
      <trkpt lat="45.36128" lon="5.72565">
        <ele>1387.126191801</ele>
        <time>2016-06-12T12:41:04Z</time>
      </trkpt>
      <trkpt lat="45.36152" lon="5.72589">
        <ele>1384.079648312</ele>
        <time>2016-06-12T12:41:19Z</time>
      </trkpt>
      <trkpt lat="45.3616" lon="5.72599">
        <ele>1381.461908384</ele>
        <time>2016-06-12T12:41:24Z</time>
      </trkpt>
      <trkpt lat="45.36184" lon="5.72615">
        <ele>1378.662859724</ele>
        <time>2016-06-12T12:41:34Z</time>
      </trkpt>
      <trkpt lat="45.36197" lon="5.72619">
        <ele>1376.126606661</ele>
        <time>2016-06-12T12:41:39Z</time>
      </trkpt>
      <trkpt lat="45.36212" lon="5.7263">
        <ele>1373.687556537</ele>
        <time>2016-06-12T12:41:49Z</time>
      </trkpt>
      <trkpt lat="45.36228" lon="5.72642">
        <ele>1371.624449017</ele>
        <time>2016-06-12T12:41:54Z</time>
      </trkpt>
      <trkpt lat="45.36253" lon="5.72651">
        <ele>1369.329932244</ele>
        <time>2016-06-12T12:42:04Z</time>
      </trkpt>
      <trkpt lat="45.36261" lon="5.72651">
        <ele>1369.329932244</ele>
        <time>2016-06-12T12:42:09Z</time>
      </trkpt>
      <trkpt lat="45.36279" lon="5.72657">
        <ele>1367.539026531</ele>
        <time>2016-06-12T12:42:19Z</time>
      </trkpt>
      <trkpt lat="45.3629" lon="5.72659">
        <ele>1365.634452694</ele>
        <time>2016-06-12T12:42:24Z</time>
      </trkpt>
      <trkpt lat="45.36301" lon="5.72668">
        <ele>1362.90059238</ele>
        <time>2016-06-12T12:42:34Z</time>
      </trkpt>
      <trkpt lat="45.36306" lon="5.72674">
        <ele>1362.90059238</ele>
        <time>2016-06-12T12:42:39Z</time>
      </trkpt>
      <trkpt lat="45.36318" lon="5.72677">
        <ele>1359.541495828</ele>
        <time>2016-06-12T12:42:49Z</time>
      </trkpt>
      <trkpt lat="45.36323" lon="5.72686">
        <ele>1359.541495828</ele>
        <time>2016-06-12T12:42:54Z</time>
      </trkpt>
      <trkpt lat="45.36345" lon="5.72695">
        <ele>1355.45985641</ele>
        <time>2016-06-12T12:43:04Z</time>
      </trkpt>
      <trkpt lat="45.36353" lon="5.727">
        <ele>1355.45985641</ele>
        <time>2016-06-12T12:43:09Z</time>
      </trkpt>
      <trkpt lat="45.36363" lon="5.72719">
        <ele>1351.28818977</ele>
        <time>2016-06-12T12:43:19Z</time>
      </trkpt>
      <trkpt lat="45.36364" lon="5.7273">
        <ele>1351.28818977</ele>
        <time>2016-06-12T12:43:24Z</time>
      </trkpt>
      <trkpt lat="45.3638" lon="5.72744">
        <ele>1347.468767691</ele>
        <time>2016-06-12T12:43:39Z</time>
      </trkpt>
      <trkpt lat="45.36385" lon="5.72746">
        <ele>1347.468767691</ele>
        <time>2016-06-12T12:43:44Z</time>
      </trkpt>
      <trkpt lat="45.364" lon="5.72757">
        <ele>1343.401671452</ele>
        <time>2016-06-12T12:43:54Z</time>
      </trkpt>
      <trkpt lat="45.36408" lon="5.72762">
        <ele>1343.401671452</ele>
        <time>2016-06-12T12:43:59Z</time>
      </trkpt>
      <trkpt lat="45.36426" lon="5.72767">
        <ele>1339.684687548</ele>
        <time>2016-06-12T12:44:09Z</time>
      </trkpt>
      <trkpt lat="45.36432" lon="5.72771">
        <ele>1339.684687548</ele>
        <time>2016-06-12T12:44:14Z</time>
      </trkpt>
      <trkpt lat="45.36453" lon="5.72782">
        <ele>1336.72663681</ele>
        <time>2016-06-12T12:44:24Z</time>
      </trkpt>
      <trkpt lat="45.36454" lon="5.72783">
        <ele>1336.72663681</ele>
        <time>2016-06-12T12:44:29Z</time>
      </trkpt>
      <trkpt lat="45.3651" lon="5.72795">
        <ele>1332.886653869</ele>
        <time>2016-06-12T12:44:59Z</time>
      </trkpt>
      <trkpt lat="45.36516" lon="5.72799">
        <ele>1332.886653869</ele>
        <time>2016-06-12T12:45:04Z</time>
      </trkpt>
      <trkpt lat="45.36515" lon="5.72799">
        <ele>1332.886653869</ele>
        <time>2016-06-12T12:45:09Z</time>
      </trkpt>
      <trkpt lat="45.36515" lon="5.72799">
        <ele>1332.886653869</ele>
        <time>2016-06-12T12:45:14Z</time>
      </trkpt>
      <trkpt lat="45.36519" lon="5.72809">
        <ele>1330.105576758</ele>
        <time>2016-06-12T12:45:19Z</time>
      </trkpt>
      <trkpt lat="45.36521" lon="5.72813">
        <ele>1330.105576758</ele>
        <time>2016-06-12T12:45:24Z</time>
      </trkpt>
      <trkpt lat="45.36521" lon="5.7282">
        <ele>1330.105576758</ele>
        <time>2016-06-12T12:45:29Z</time>
      </trkpt>
      <trkpt lat="45.36533" lon="5.72851">
        <ele>1325.855382361</ele>
        <time>2016-06-12T12:45:44Z</time>
      </trkpt>
      <trkpt lat="45.36538" lon="5.72863">
        <ele>1321.544776257</ele>
        <time>2016-06-12T12:45:49Z</time>
      </trkpt>
      <trkpt lat="45.36554" lon="5.72878">
        <ele>1317.038039862</ele>
        <time>2016-06-12T12:45:59Z</time>
      </trkpt>
      <trkpt lat="45.36563" lon="5.72881">
        <ele>1312.786409994</ele>
        <time>2016-06-12T12:46:04Z</time>
      </trkpt>
      <trkpt lat="45.36575" lon="5.72893">
        <ele>1308.198460837</ele>
        <time>2016-06-12T12:46:14Z</time>
      </trkpt>
      <trkpt lat="45.36589" lon="5.72903">
        <ele>1304.024124448</ele>
        <time>2016-06-12T12:46:19Z</time>
      </trkpt>
      <trkpt lat="45.3661" lon="5.72937">
        <ele>1300.524709148</ele>
        <time>2016-06-12T12:46:29Z</time>
      </trkpt>
      <trkpt lat="45.36616" lon="5.72945">
        <ele>1300.524709148</ele>
        <time>2016-06-12T12:46:34Z</time>
      </trkpt>
      <trkpt lat="45.36624" lon="5.72964">
        <ele>1296.355163712</ele>
        <time>2016-06-12T12:46:44Z</time>
      </trkpt>
      <trkpt lat="45.36632" lon="5.72981">
        <ele>1292.86507201</ele>
        <time>2016-06-12T12:46:49Z</time>
      </trkpt>
      <trkpt lat="45.36653" lon="5.72995">
        <ele>1289.573583331</ele>
        <time>2016-06-12T12:46:59Z</time>
      </trkpt>
      <trkpt lat="45.36663" lon="5.73003">
        <ele>1286.32277957</ele>
        <time>2016-06-12T12:47:04Z</time>
      </trkpt>
      <trkpt lat="45.36691" lon="5.73013">
        <ele>1282.677950852</ele>
        <time>2016-06-12T12:47:14Z</time>
      </trkpt>
      <trkpt lat="45.367" lon="5.73024">
        <ele>1278.669703972</ele>
        <time>2016-06-12T12:47:19Z</time>
      </trkpt>
      <trkpt lat="45.36714" lon="5.73051">
        <ele>1274.759694182</ele>
        <time>2016-06-12T12:47:29Z</time>
      </trkpt>
      <trkpt lat="45.36722" lon="5.73066">
        <ele>1271.375331352</ele>
        <time>2016-06-12T12:47:34Z</time>
      </trkpt>
      <trkpt lat="45.36744" lon="5.73087">
        <ele>1268.622874554</ele>
        <time>2016-06-12T12:47:44Z</time>
      </trkpt>
      <trkpt lat="45.36747" lon="5.73091">
        <ele>1268.622874554</ele>
        <time>2016-06-12T12:47:49Z</time>
      </trkpt>
      <trkpt lat="45.36758" lon="5.73108">
        <ele>1268.760622443</ele>
        <time>2016-06-12T12:47:59Z</time>
      </trkpt>
      <trkpt lat="45.36756" lon="5.73117">
        <ele>1268.760622443</ele>
        <time>2016-06-12T12:48:04Z</time>
      </trkpt>
      <trkpt lat="45.3676" lon="5.73146">
        <ele>1265.802605346</ele>
        <time>2016-06-12T12:48:19Z</time>
      </trkpt>
      <trkpt lat="45.36761" lon="5.7316">
        <ele>1263.29023735</ele>
        <time>2016-06-12T12:48:24Z</time>
      </trkpt>
      <trkpt lat="45.36762" lon="5.73189">
        <ele>1259.459620771</ele>
        <time>2016-06-12T12:48:34Z</time>
      </trkpt>
      <trkpt lat="45.36767" lon="5.73209">
        <ele>1255.706450694</ele>
        <time>2016-06-12T12:48:39Z</time>
      </trkpt>
      <trkpt lat="45.36773" lon="5.7324">
        <ele>1252.314885329</ele>
        <time>2016-06-12T12:48:49Z</time>
      </trkpt>
      <trkpt lat="45.36779" lon="5.73257">
        <ele>1249.114845544</ele>
        <time>2016-06-12T12:48:54Z</time>
      </trkpt>
      <trkpt lat="45.36794" lon="5.73276">
        <ele>1245.804080773</ele>
        <time>2016-06-12T12:49:04Z</time>
      </trkpt>
      <trkpt lat="45.36797" lon="5.73293">
        <ele>1242.679282004</ele>
        <time>2016-06-12T12:49:09Z</time>
      </trkpt>
      <trkpt lat="45.36805" lon="5.73333">
        <ele>1239.72658583</ele>
        <time>2016-06-12T12:49:19Z</time>
      </trkpt>
      <trkpt lat="45.36805" lon="5.73333">
        <ele>1239.72658583</ele>
        <time>2016-06-12T12:49:24Z</time>
      </trkpt>
      <trkpt lat="45.36837" lon="5.73435">
        <ele>1239.094322217</ele>
        <time>2016-06-12T12:49:59Z</time>
      </trkpt>
      <trkpt lat="45.3684" lon="5.73434">
        <ele>1239.094322217</ele>
        <time>2016-06-12T12:50:04Z</time>
      </trkpt>
      <trkpt lat="45.36852" lon="5.73424">
        <ele>1235.272709807</ele>
        <time>2016-06-12T12:50:14Z</time>
      </trkpt>
      <trkpt lat="45.36864" lon="5.73434">
        <ele>1231.235882896</ele>
        <time>2016-06-12T12:50:19Z</time>
      </trkpt>
      <trkpt lat="45.36871" lon="5.7346">
        <ele>1227.290211443</ele>
        <time>2016-06-12T12:50:29Z</time>
      </trkpt>
      <trkpt lat="45.36872" lon="5.73475">
        <ele>1222.998745667</ele>
        <time>2016-06-12T12:50:34Z</time>
      </trkpt>
      <trkpt lat="45.36878" lon="5.73495">
        <ele>1218.101704417</ele>
        <time>2016-06-12T12:50:44Z</time>
      </trkpt>
      <trkpt lat="45.36881" lon="5.7351">
        <ele>1213.657070131</ele>
        <time>2016-06-12T12:50:49Z</time>
      </trkpt>
      <trkpt lat="45.36892" lon="5.73537">
        <ele>1209.779143304</ele>
        <time>2016-06-12T12:50:59Z</time>
      </trkpt>
      <trkpt lat="45.36898" lon="5.73542">
        <ele>1209.779143304</ele>
        <time>2016-06-12T12:51:04Z</time>
      </trkpt>
      <trkpt lat="45.36908" lon="5.73572">
        <ele>1206.428093663</ele>
        <time>2016-06-12T12:51:14Z</time>
      </trkpt>
      <trkpt lat="45.36915" lon="5.73587">
        <ele>1203.85372532</ele>
        <time>2016-06-12T12:51:19Z</time>
      </trkpt>
      <trkpt lat="45.36933" lon="5.73613">
        <ele>1200.555943755</ele>
        <time>2016-06-12T12:51:29Z</time>
      </trkpt>
      <trkpt lat="45.36942" lon="5.73626">
        <ele>1197.74084937</ele>
        <time>2016-06-12T12:51:34Z</time>
      </trkpt>
      <trkpt lat="45.36959" lon="5.73656">
        <ele>1195.804008278</ele>
        <time>2016-06-12T12:51:44Z</time>
      </trkpt>
      <trkpt lat="45.36966" lon="5.73668">
        <ele>1194.244781423</ele>
        <time>2016-06-12T12:51:49Z</time>
      </trkpt>
      <trkpt lat="45.36983" lon="5.73692">
        <ele>1193.895243606</ele>
        <time>2016-06-12T12:51:59Z</time>
      </trkpt>
      <trkpt lat="45.3699" lon="5.73706">
        <ele>1193.79363108</ele>
        <time>2016-06-12T12:52:04Z</time>
      </trkpt>
      <trkpt lat="45.37002" lon="5.73716">
        <ele>1194.345169685</ele>
        <time>2016-06-12T12:52:14Z</time>
      </trkpt>
      <trkpt lat="45.37003" lon="5.7372">
        <ele>1194.345169685</ele>
        <time>2016-06-12T12:52:19Z</time>
      </trkpt>
      <trkpt lat="45.37004" lon="5.7372">
        <ele>1194.345169685</ele>
        <time>2016-06-12T12:52:29Z</time>
      </trkpt>
      <trkpt lat="45.37004" lon="5.73721">
        <ele>1194.345169685</ele>
        <time>2016-06-12T12:52:34Z</time>
      </trkpt>
      <trkpt lat="45.37002" lon="5.73722">
        <ele>1194.345169685</ele>
        <time>2016-06-12T12:52:39Z</time>
      </trkpt>
      <trkpt lat="45.36996" lon="5.73741">
        <ele>1194.770653633</ele>
        <time>2016-06-12T12:52:49Z</time>
      </trkpt>
      <trkpt lat="45.36997" lon="5.73757">
        <ele>1194.924997566</ele>
        <time>2016-06-12T12:52:54Z</time>
      </trkpt>
      <trkpt lat="45.36996" lon="5.73792">
        <ele>1194.242305236</ele>
        <time>2016-06-12T12:53:04Z</time>
      </trkpt>
      <trkpt lat="45.37001" lon="5.73807">
        <ele>1193.497722338</ele>
        <time>2016-06-12T12:53:09Z</time>
      </trkpt>
      <trkpt lat="45.36996" lon="5.73832">
        <ele>1192.112762224</ele>
        <time>2016-06-12T12:53:19Z</time>
      </trkpt>
      <trkpt lat="45.3698" lon="5.73829">
        <ele>1190.850375889</ele>
        <time>2016-06-12T12:53:24Z</time>
      </trkpt>
      <trkpt lat="45.36958" lon="5.73815">
        <ele>1189.120274223</ele>
        <time>2016-06-12T12:53:34Z</time>
      </trkpt>
      <trkpt lat="45.36947" lon="5.7381">
        <ele>1187.529884453</ele>
        <time>2016-06-12T12:53:39Z</time>
      </trkpt>
      <trkpt lat="45.36921" lon="5.73806">
        <ele>1185.921217804</ele>
        <time>2016-06-12T12:53:49Z</time>
      </trkpt>
      <trkpt lat="45.36909" lon="5.73802">
        <ele>1184.292206061</ele>
        <time>2016-06-12T12:53:54Z</time>
      </trkpt>
      <trkpt lat="45.36873" lon="5.73784">
        <ele>1182.064695174</ele>
        <time>2016-06-12T12:54:09Z</time>
      </trkpt>
      <trkpt lat="45.36863" lon="5.73773">
        <ele>1180.001828052</ele>
        <time>2016-06-12T12:54:14Z</time>
      </trkpt>
      <trkpt lat="45.36836" lon="5.7376">
        <ele>1178.37803513</ele>
        <time>2016-06-12T12:54:24Z</time>
      </trkpt>
      <trkpt lat="45.36826" lon="5.73751">
        <ele>1176.870049928</ele>
        <time>2016-06-12T12:54:29Z</time>
      </trkpt>
      <trkpt lat="45.36804" lon="5.73738">
        <ele>1175.32227464</ele>
        <time>2016-06-12T12:54:39Z</time>
      </trkpt>
      <trkpt lat="45.36789" lon="5.7372">
        <ele>1173.734897309</ele>
        <time>2016-06-12T12:54:44Z</time>
      </trkpt>
      <trkpt lat="45.36766" lon="5.73694">
        <ele>1171.964222701</ele>
        <time>2016-06-12T12:54:54Z</time>
      </trkpt>
      <trkpt lat="45.36758" lon="5.73692">
        <ele>1171.964222701</ele>
        <time>2016-06-12T12:54:59Z</time>
      </trkpt>
      <trkpt lat="45.36732" lon="5.73679">
        <ele>1169.157195734</ele>
        <time>2016-06-12T12:55:09Z</time>
      </trkpt>
      <trkpt lat="45.36717" lon="5.73676">
        <ele>1166.111675428</ele>
        <time>2016-06-12T12:55:14Z</time>
      </trkpt>
      <trkpt lat="45.36687" lon="5.7367">
        <ele>1162.991244233</ele>
        <time>2016-06-12T12:55:24Z</time>
      </trkpt>
      <trkpt lat="45.36674" lon="5.73663">
        <ele>1159.947775241</ele>
        <time>2016-06-12T12:55:29Z</time>
      </trkpt>
      <trkpt lat="45.36649" lon="5.73649">
        <ele>1156.113073332</ele>
        <time>2016-06-12T12:55:39Z</time>
      </trkpt>
      <trkpt lat="45.36635" lon="5.73644">
        <ele>1152.41434142</ele>
        <time>2016-06-12T12:55:44Z</time>
      </trkpt>
      <trkpt lat="45.36618" lon="5.73628">
        <ele>1148.55745137</ele>
        <time>2016-06-12T12:55:54Z</time>
      </trkpt>
      <trkpt lat="45.36609" lon="5.73619">
        <ele>1144.558582641</ele>
        <time>2016-06-12T12:55:59Z</time>
      </trkpt>
      <trkpt lat="45.3658" lon="5.73606">
        <ele>1140.433142763</ele>
        <time>2016-06-12T12:56:09Z</time>
      </trkpt>
      <trkpt lat="45.36568" lon="5.73592">
        <ele>1136.33987588</ele>
        <time>2016-06-12T12:56:14Z</time>
      </trkpt>
      <trkpt lat="45.3653" lon="5.73577">
        <ele>1132.137538718</ele>
        <time>2016-06-12T12:56:29Z</time>
      </trkpt>
      <trkpt lat="45.36515" lon="5.73566">
        <ele>1163.723394831</ele>
        <time>2016-06-12T12:56:34Z</time>
      </trkpt>
      <trkpt lat="45.36481" lon="5.73558">
        <ele>1157.903338251</ele>
        <time>2016-06-12T12:56:44Z</time>
      </trkpt>
      <trkpt lat="45.3647" lon="5.7355">
        <ele>1150.869249453</ele>
        <time>2016-06-12T12:56:49Z</time>
      </trkpt>
      <trkpt lat="45.36458" lon="5.73537">
        <ele>1143.588795022</ele>
        <time>2016-06-12T12:56:54Z</time>
      </trkpt>
      <trkpt lat="45.36443" lon="5.73521">
        <ele>1136.382943969</ele>
        <time>2016-06-12T12:56:59Z</time>
      </trkpt>
      <trkpt lat="45.36437" lon="5.7351">
        <ele>1129.548966333</ele>
        <time>2016-06-12T12:57:04Z</time>
      </trkpt>
      <trkpt lat="45.36414" lon="5.73487">
        <ele>1124.081848898</ele>
        <time>2016-06-12T12:57:14Z</time>
      </trkpt>
      <trkpt lat="45.36404" lon="5.73467">
        <ele>1118.593874331</ele>
        <time>2016-06-12T12:57:19Z</time>
      </trkpt>
      <trkpt lat="45.36382" lon="5.73441">
        <ele>1112.375733756</ele>
        <time>2016-06-12T12:57:29Z</time>
      </trkpt>
      <trkpt lat="45.3637" lon="5.73431">
        <ele>1106.789763136</ele>
        <time>2016-06-12T12:57:34Z</time>
      </trkpt>
      <trkpt lat="45.36343" lon="5.73397">
        <ele>1100.214132314</ele>
        <time>2016-06-12T12:57:49Z</time>
      </trkpt>
      <trkpt lat="45.36329" lon="5.73395">
        <ele>1093.742807494</ele>
        <time>2016-06-12T12:57:54Z</time>
      </trkpt>
      <trkpt lat="45.36304" lon="5.73394">
        <ele>1086.947842417</ele>
        <time>2016-06-12T12:58:04Z</time>
      </trkpt>
      <trkpt lat="45.36291" lon="5.73406">
        <ele>1080.298131263</ele>
        <time>2016-06-12T12:58:09Z</time>
      </trkpt>
      <trkpt lat="45.36289" lon="5.73427">
        <ele>1074.371633063</ele>
        <time>2016-06-12T12:58:19Z</time>
      </trkpt>
      <trkpt lat="45.36296" lon="5.73429">
        <ele>1074.371633063</ele>
        <time>2016-06-12T12:58:24Z</time>
      </trkpt>
      <trkpt lat="45.36313" lon="5.73444">
        <ele>1068.54871831</ele>
        <time>2016-06-12T12:58:34Z</time>
      </trkpt>
      <trkpt lat="45.36298" lon="5.73445">
        <ele>1063.119422286</ele>
        <time>2016-06-12T12:58:39Z</time>
      </trkpt>
      <trkpt lat="45.36283" lon="5.73463">
        <ele>1057.918796734</ele>
        <time>2016-06-12T12:58:49Z</time>
      </trkpt>
      <trkpt lat="45.36276" lon="5.73463">
        <ele>1057.918796734</ele>
        <time>2016-06-12T12:58:54Z</time>
      </trkpt>
      <trkpt lat="45.36253" lon="5.73497">
        <ele>1052.072565056</ele>
        <time>2016-06-12T12:59:04Z</time>
      </trkpt>
      <trkpt lat="45.36246" lon="5.73518">
        <ele>1047.222123025</ele>
        <time>2016-06-12T12:59:09Z</time>
      </trkpt>
      <trkpt lat="45.36225" lon="5.73537">
        <ele>1042.435352517</ele>
        <time>2016-06-12T12:59:19Z</time>
      </trkpt>
      <trkpt lat="45.36219" lon="5.73559">
        <ele>1038.145176295</ele>
        <time>2016-06-12T12:59:24Z</time>
      </trkpt>
      <trkpt lat="45.3619" lon="5.73611">
        <ele>1033.88640437</ele>
        <time>2016-06-12T12:59:39Z</time>
      </trkpt>
      <trkpt lat="45.3618" lon="5.73619">
        <ele>1029.515909446</ele>
        <time>2016-06-12T12:59:44Z</time>
      </trkpt>
      <trkpt lat="45.36156" lon="5.73629">
        <ele>1024.180597585</ele>
        <time>2016-06-12T12:59:54Z</time>
      </trkpt>
      <trkpt lat="45.36144" lon="5.73635">
        <ele>1018.965961675</ele>
        <time>2016-06-12T12:59:59Z</time>
      </trkpt>
      <trkpt lat="45.36121" lon="5.73658">
        <ele>1014.012520968</ele>
        <time>2016-06-12T13:00:09Z</time>
      </trkpt>
      <trkpt lat="45.36106" lon="5.73658">
        <ele>1009.593626363</ele>
        <time>2016-06-12T13:00:14Z</time>
      </trkpt>
      <trkpt lat="45.36091" lon="5.73677">
        <ele>1005.528496441</ele>
        <time>2016-06-12T13:00:24Z</time>
      </trkpt>
      <trkpt lat="45.36098" lon="5.73688">
        <ele>1001.792537927</ele>
        <time>2016-06-12T13:00:29Z</time>
      </trkpt>
      <trkpt lat="45.36124" lon="5.737">
        <ele>997.064838758</ele>
        <time>2016-06-12T13:00:39Z</time>
      </trkpt>
      <trkpt lat="45.36139" lon="5.73697">
        <ele>993.006335346</ele>
        <time>2016-06-12T13:00:44Z</time>
      </trkpt>
      <trkpt lat="45.3615" lon="5.73698">
        <ele>990.001008295</ele>
        <time>2016-06-12T13:00:49Z</time>
      </trkpt>
      <trkpt lat="45.36164" lon="5.73695">
        <ele>988.113292053</ele>
        <time>2016-06-12T13:00:54Z</time>
      </trkpt>
      <trkpt lat="45.36173" lon="5.73707">
        <ele>985.81438499</ele>
        <time>2016-06-12T13:00:59Z</time>
      </trkpt>
      <trkpt lat="45.36173" lon="5.73715">
        <ele>985.81438499</ele>
        <time>2016-06-12T13:01:04Z</time>
      </trkpt>
      <trkpt lat="45.36166" lon="5.73718">
        <ele>983.274043079</ele>
        <time>2016-06-12T13:01:09Z</time>
      </trkpt>
      <trkpt lat="45.36161" lon="5.73723">
        <ele>983.274043079</ele>
        <time>2016-06-12T13:01:14Z</time>
      </trkpt>
      <trkpt lat="45.36145" lon="5.7373">
        <ele>981.370685089</ele>
        <time>2016-06-12T13:01:24Z</time>
      </trkpt>
      <trkpt lat="45.36135" lon="5.73734">
        <ele>980.195783033</ele>
        <time>2016-06-12T13:01:29Z</time>
      </trkpt>
      <trkpt lat="45.36119" lon="5.7374">
        <ele>977.670324111</ele>
        <time>2016-06-12T13:01:39Z</time>
      </trkpt>
      <trkpt lat="45.3611" lon="5.73749">
        <ele>975.474553442</ele>
        <time>2016-06-12T13:01:44Z</time>
      </trkpt>
      <trkpt lat="45.36087" lon="5.73762">
        <ele>973.00268021</ele>
        <time>2016-06-12T13:01:54Z</time>
      </trkpt>
      <trkpt lat="45.36081" lon="5.73754">
        <ele>973.00268021</ele>
        <time>2016-06-12T13:01:59Z</time>
      </trkpt>
      <trkpt lat="45.36057" lon="5.7376">
        <ele>970.414747512</ele>
        <time>2016-06-12T13:02:09Z</time>
      </trkpt>
      <trkpt lat="45.36049" lon="5.73767">
        <ele>968.147605834</ele>
        <time>2016-06-12T13:02:14Z</time>
      </trkpt>
      <trkpt lat="45.36033" lon="5.73774">
        <ele>966.172810782</ele>
        <time>2016-06-12T13:02:24Z</time>
      </trkpt>
      <trkpt lat="45.36016" lon="5.73792">
        <ele>964.463229629</ele>
        <time>2016-06-12T13:02:29Z</time>
      </trkpt>
      <trkpt lat="45.36" lon="5.73798">
        <ele>963.137146217</ele>
        <time>2016-06-12T13:02:39Z</time>
      </trkpt>
      <trkpt lat="45.35989" lon="5.73792">
        <ele>961.72670574</ele>
        <time>2016-06-12T13:02:44Z</time>
      </trkpt>
      <trkpt lat="45.35949" lon="5.73774">
        <ele>959.51052048</ele>
        <time>2016-06-12T13:02:59Z</time>
      </trkpt>
      <trkpt lat="45.35932" lon="5.73772">
        <ele>957.840109616</ele>
        <time>2016-06-12T13:03:04Z</time>
      </trkpt>
      <trkpt lat="45.3591" lon="5.73807">
        <ele>955.804620024</ele>
        <time>2016-06-12T13:03:14Z</time>
      </trkpt>
      <trkpt lat="45.35904" lon="5.7382">
        <ele>954.290584773</ele>
        <time>2016-06-12T13:03:19Z</time>
      </trkpt>
      <trkpt lat="45.35892" lon="5.73832">
        <ele>952.965186333</ele>
        <time>2016-06-12T13:03:29Z</time>
      </trkpt>
      <trkpt lat="45.35881" lon="5.73838">
        <ele>951.519660901</ele>
        <time>2016-06-12T13:03:34Z</time>
      </trkpt>
      <trkpt lat="45.35863" lon="5.73855">
        <ele>949.812516588</ele>
        <time>2016-06-12T13:03:44Z</time>
      </trkpt>
      <trkpt lat="45.3585" lon="5.73858">
        <ele>947.713538077</ele>
        <time>2016-06-12T13:03:49Z</time>
      </trkpt>
      <trkpt lat="45.35832" lon="5.7388">
        <ele>945.967995761</ele>
        <time>2016-06-12T13:03:59Z</time>
      </trkpt>
      <trkpt lat="45.35833" lon="5.73887">
        <ele>945.967995761</ele>
        <time>2016-06-12T13:04:04Z</time>
      </trkpt>
      <trkpt lat="45.35858" lon="5.73881">
        <ele>943.824466349</ele>
        <time>2016-06-12T13:04:14Z</time>
      </trkpt>
      <trkpt lat="45.35866" lon="5.73878">
        <ele>943.824466349</ele>
        <time>2016-06-12T13:04:19Z</time>
      </trkpt>
      <trkpt lat="45.3588" lon="5.7387">
        <ele>940.876220685</ele>
        <time>2016-06-12T13:04:29Z</time>
      </trkpt>
      <trkpt lat="45.35893" lon="5.73866">
        <ele>938.478153794</ele>
        <time>2016-06-12T13:04:34Z</time>
      </trkpt>
      <trkpt lat="45.35914" lon="5.7387">
        <ele>936.443127921</ele>
        <time>2016-06-12T13:04:44Z</time>
      </trkpt>
      <trkpt lat="45.35921" lon="5.73882">
        <ele>934.596882997</ele>
        <time>2016-06-12T13:04:49Z</time>
      </trkpt>
      <trkpt lat="45.35901" lon="5.73891">
        <ele>932.345243073</ele>
        <time>2016-06-12T13:04:59Z</time>
      </trkpt>
      <trkpt lat="45.35895" lon="5.73898">
        <ele>932.345243073</ele>
        <time>2016-06-12T13:05:04Z</time>
      </trkpt>
      <trkpt lat="45.35873" lon="5.73921">
        <ele>930.435962701</ele>
        <time>2016-06-12T13:05:14Z</time>
      </trkpt>
      <trkpt lat="45.35869" lon="5.7393">
        <ele>930.435962701</ele>
        <time>2016-06-12T13:05:19Z</time>
      </trkpt>
      <trkpt lat="45.35864" lon="5.73934">
        <ele>928.984606385</ele>
        <time>2016-06-12T13:05:24Z</time>
      </trkpt>
      <trkpt lat="45.35858" lon="5.73937">
        <ele>928.984606385</ele>
        <time>2016-06-12T13:05:29Z</time>
      </trkpt>
      <trkpt lat="45.3584" lon="5.73961">
        <ele>927.088330487</ele>
        <time>2016-06-12T13:05:39Z</time>
      </trkpt>
      <trkpt lat="45.35832" lon="5.73959">
        <ele>927.088330487</ele>
        <time>2016-06-12T13:05:44Z</time>
      </trkpt>
      <trkpt lat="45.3581" lon="5.73982">
        <ele>925.497228547</ele>
        <time>2016-06-12T13:05:54Z</time>
      </trkpt>
      <trkpt lat="45.35801" lon="5.73989">
        <ele>924.04091402</ele>
        <time>2016-06-12T13:05:59Z</time>
      </trkpt>
      <trkpt lat="45.35778" lon="5.74027">
        <ele>922.417172385</ele>
        <time>2016-06-12T13:06:09Z</time>
      </trkpt>
      <trkpt lat="45.35775" lon="5.74038">
        <ele>922.417172385</ele>
        <time>2016-06-12T13:06:14Z</time>
      </trkpt>
      <trkpt lat="45.35766" lon="5.74067">
        <ele>919.481934791</ele>
        <time>2016-06-12T13:06:24Z</time>
      </trkpt>
      <trkpt lat="45.35754" lon="5.74079">
        <ele>916.196548354</ele>
        <time>2016-06-12T13:06:29Z</time>
      </trkpt>
      <trkpt lat="45.35752" lon="5.74108">
        <ele>913.020519043</ele>
        <time>2016-06-12T13:06:39Z</time>
      </trkpt>
      <trkpt lat="45.35749" lon="5.74122">
        <ele>910.235299582</ele>
        <time>2016-06-12T13:06:44Z</time>
      </trkpt>
      <trkpt lat="45.35734" lon="5.74153">
        <ele>907.380123145</ele>
        <time>2016-06-12T13:06:59Z</time>
      </trkpt>
      <trkpt lat="45.35732" lon="5.74167">
        <ele>904.02836319</ele>
        <time>2016-06-12T13:07:04Z</time>
      </trkpt>
      <trkpt lat="45.3573" lon="5.74196">
        <ele>900.218544151</ele>
        <time>2016-06-12T13:07:14Z</time>
      </trkpt>
      <trkpt lat="45.35728" lon="5.74214">
        <ele>895.98771712</ele>
        <time>2016-06-12T13:07:19Z</time>
      </trkpt>
      <trkpt lat="45.3573" lon="5.74247">
        <ele>891.371448622</ele>
        <time>2016-06-12T13:07:29Z</time>
      </trkpt>
      <trkpt lat="45.35727" lon="5.74264">
        <ele>886.836146062</ele>
        <time>2016-06-12T13:07:34Z</time>
      </trkpt>
      <trkpt lat="45.35728" lon="5.74289">
        <ele>882.093192027</ele>
        <time>2016-06-12T13:07:44Z</time>
      </trkpt>
      <trkpt lat="45.35728" lon="5.74304">
        <ele>877.163976738</ele>
        <time>2016-06-12T13:07:49Z</time>
      </trkpt>
      <trkpt lat="45.35731" lon="5.74342">
        <ele>872.212935216</ele>
        <time>2016-06-12T13:07:59Z</time>
      </trkpt>
      <trkpt lat="45.35738" lon="5.74363">
        <ele>883.965262118</ele>
        <time>2016-06-12T13:08:04Z</time>
      </trkpt>
      <trkpt lat="45.35743" lon="5.74373">
        <ele>883.965262118</ele>
        <time>2016-06-12T13:08:09Z</time>
      </trkpt>
      <trkpt lat="45.3575" lon="5.74386">
        <ele>881.466876421</ele>
        <time>2016-06-12T13:08:14Z</time>
      </trkpt>
      <trkpt lat="45.35746" lon="5.74394">
        <ele>881.466876421</ele>
        <time>2016-06-12T13:08:19Z</time>
      </trkpt>
      <trkpt lat="45.35744" lon="5.74406">
        <ele>878.302136183</ele>
        <time>2016-06-12T13:08:24Z</time>
      </trkpt>
      <trkpt lat="45.35758" lon="5.74424">
        <ele>875.674631749</ele>
        <time>2016-06-12T13:08:34Z</time>
      </trkpt>
      <trkpt lat="45.35776" lon="5.74424">
        <ele>873.112867261</ele>
        <time>2016-06-12T13:08:39Z</time>
      </trkpt>
      <trkpt lat="45.35777" lon="5.74431">
        <ele>873.112867261</ele>
        <time>2016-06-12T13:08:49Z</time>
      </trkpt>
      <trkpt lat="45.35781" lon="5.74433">
        <ele>871.188630211</ele>
        <time>2016-06-12T13:08:54Z</time>
      </trkpt>
      <trkpt lat="45.35786" lon="5.74437">
        <ele>871.188630211</ele>
        <time>2016-06-12T13:08:59Z</time>
      </trkpt>
      <trkpt lat="45.35786" lon="5.74437">
        <ele>871.188630211</ele>
        <time>2016-06-12T13:09:04Z</time>
      </trkpt>
    </trkseg>
  </trk>
</gpx>